Observation data for Mertzon on 11/13/2019      Previous  Date       Current Mesonet Observations  Soil Data  Daily Summary Page  Observations in Plain Language
KME1 130600Z 20003KT M03/M05 A3032 RMK A01 T10341045  RH  092%=      5-min Rain = 0
KME1 130601Z 20003KT M03/M05 A3032 RMK A01 T10341045  RH  092%=      5-min Rain = 0
KME1 130602Z 20002KT M03/M05 A3032 RMK A01 T10341046  RH  091%=      5-min Rain = 0
KME1 130603Z 20003KT M03/M05 A3032 RMK A01 T10341047  RH  091%=      5-min Rain = 0
KME1 130604Z 20003KT M03/M05 A3032 RMK A01 T10331047  RH  090%=      5-min Rain = 0
KME1 130605Z 21003KT M03/M05 A3032 RMK A01 T10331047  RH  090%=      5-min Rain = 0
KME1 130606Z 21003KT M03/M05 A3032 RMK A01 T10331048  RH  089%=      5-min Rain = 0
KME1 130607Z 21003KT M03/M05 A3032 RMK A01 T10321048  RH  089%=      5-min Rain = 0
KME1 130608Z 20003KT M03/M05 A3032 RMK A01 T10321048  RH  089%=      5-min Rain = 0
KME1 130609Z 20003KT M03/M05 A3032 RMK A01 T10331048  RH  089%=      5-min Rain = 0
KME1 130610Z 19003KT M03/M05 A3032 RMK A01 T10331048  RH  089%=      5-min Rain = 0
KME1 130611Z 18003KT M03/M05 A3032 RMK A01 T10341048  RH  090%=      5-min Rain = 0
KME1 130612Z 19003KT M03/M05 A3032 RMK A01 T10341048  RH  090%=      5-min Rain = 0
KME1 130613Z 19003KT M03/M05 A3032 RMK A01 T10341048  RH  090%=      5-min Rain = 0
KME1 130614Z 20003KT M03/M05 A3032 RMK A01 T10341048  RH  090%=      5-min Rain = 0
KME1 130615Z 20002KT M03/M05 A3032 RMK A01 T10341048  RH  090%=      5-min Rain = 0
KME1 130616Z 20002KT M03/M05 A3031 RMK A01 T10341048  RH  090%=      5-min Rain = 0
KME1 130617Z 20003KT M03/M05 A3031 RMK A01 T10331047  RH  090%=      5-min Rain = 0
KME1 130618Z 20003KT M03/M05 A3031 RMK A01 T10341048  RH  090%=      5-min Rain = 0
KME1 130619Z 20003KT M03/M05 A3031 RMK A01 T10341047  RH  090%=      5-min Rain = 0
KME1 130620Z 20003KT M03/M05 A3031 RMK A01 T10341047  RH  090%=      5-min Rain = 0
KME1 130621Z 20003KT M03/M05 A3031 RMK A01 T10341047  RH  090%=      5-min Rain = 0
KME1 130622Z 19003KT M03/M05 A3031 RMK A01 T10341047  RH  090%=      5-min Rain = 0
KME1 130623Z 20002KT M03/M05 A3031 RMK A01 T10341047  RH  090%=      5-min Rain = 0
KME1 130624Z 21002KT M03/M05 A3031 RMK A01 T10341047  RH  090%=      5-min Rain = 0
KME1 130625Z 21002KT M03/M05 A3031 RMK A01 T10341047  RH  091%=      5-min Rain = 0
KME1 130626Z 21002KT M03/M05 A3031 RMK A01 T10341047  RH  091%=      5-min Rain = 0
KME1 130627Z 20002KT M03/M05 A3031 RMK A01 T10341047  RH  091%=      5-min Rain = 0
KME1 130628Z 20002KT M03/M05 A3031 RMK A01 T10341046  RH  091%=      5-min Rain = 0
KME1 130629Z 20002KT M03/M05 A3031 RMK A01 T10331046  RH  091%=      5-min Rain = 0
KME1 130630Z 20002KT M03/M05 A3031 RMK A01 T10341046  RH  091%=      5-min Rain = 0
KME1 130631Z 20002KT M03/M05 A3031 RMK A01 T10331047  RH  091%=      5-min Rain = 0
KME1 130632Z 20002KT M03/M05 A3031 RMK A01 T10331047  RH  090%=      5-min Rain = 0
KME1 130633Z 20003KT M03/M05 A3031 RMK A01 T10331048  RH  090%=      5-min Rain = 0
KME1 130634Z 20003KT M03/M05 A3031 RMK A01 T10331048  RH  090%=      5-min Rain = 0
KME1 130635Z 21002KT M03/M05 A3031 RMK A01 T10331047  RH  090%=      5-min Rain = 0
KME1 130636Z 20002KT M03/M05 A3031 RMK A01 T10331047  RH  090%=      5-min Rain = 0
KME1 130637Z 21002KT M03/M05 A303 RMK A01 T10331047  RH  090%=      5-min Rain = 0
KME1 130638Z 22002KT M03/M05 A303 RMK A01 T10331046  RH  090%=      5-min Rain = 0
KME1 130639Z 22002KT M03/M05 A303 RMK A01 T10331046  RH  091%=      5-min Rain = 0
KME1 130640Z 22002KT M03/M05 A303 RMK A01 T10321045  RH  091%=      5-min Rain = 0
KME1 130641Z 22002KT M03/M05 A303 RMK A01 T10321045  RH  091%=      5-min Rain = 0
KME1 130642Z 22001KT M03/M04 A303 RMK A01 T10321044  RH  091%=      5-min Rain = 0
KME1 130643Z 22001KT M03/M04 A3031 RMK A01 T10321044  RH  091%=      5-min Rain = 0
KME1 130644Z 22002KT M03/M04 A3031 RMK A01 T10321044  RH  091%=      5-min Rain = 0
KME1 130645Z 21002KT M03/M04 A3031 RMK A01 T10321044  RH  091%=      5-min Rain = 0
KME1 130646Z 20002KT M03/M05 A3031 RMK A01 T10321045  RH  091%=      5-min Rain = 0
KME1 130647Z 20003KT M03/M05 A3031 RMK A01 T10321045  RH  091%=      5-min Rain = 0
KME1 130648Z 20003KT M03/M05 A3031 RMK A01 T10321045  RH  091%=      5-min Rain = 0
KME1 130649Z 20003KT M03/M05 A3031 RMK A01 T10321045  RH  091%=      5-min Rain = 0
KME1 130650Z 20003KT M03/M05 A3031 RMK A01 T10321046  RH  090%=      5-min Rain = 0
KME1 130651Z 20003KT M03/M05 A3031 RMK A01 T10321046  RH  090%=      5-min Rain = 0
KME1 130652Z 20002KT M03/M05 A3031 RMK A01 T10321046  RH  090%=      5-min Rain = 0
KME1 130653Z 19002KT M03/M05 A3031 RMK A01 T10321046  RH  090%=      5-min Rain = 0
KME1 130654Z 19002KT M03/M05 A3031 RMK A01 T10321046  RH  090%=      5-min Rain = 0
KME1 130655Z 19003KT M03/M05 A3031 RMK A01 T10321046  RH  090%=      5-min Rain = 0
KME1 130656Z 19003KT M03/M05 A3031 RMK A01 T10321045  RH  091%=      5-min Rain = 0
KME1 130657Z 19003KT M03/M05 A3031 RMK A01 T10321045  RH  091%=      5-min Rain = 0
KME1 130658Z 19003KT M03/M05 A3031 RMK A01 T10331045  RH  091%=      5-min Rain = 0
KME1 130659Z 19003KT M03/M05 A3031 RMK A01 T10331045  RH  091%=      5-min Rain = 0
KME1 130700Z 19003KT M03/M05 A3031 RMK A01 T10331045  RH  091%=      5-min Rain = 0
KME1 130701Z 19002KT M03/M05 A3031 RMK A01 T10331045  RH  091%=      5-min Rain = 0
KME1 130702Z 19002KT M03/M05 A3031 RMK A01 T10331045  RH  091%=      5-min Rain = 0
KME1 130703Z 19002KT M03/M05 A3031 RMK A01 T10331045  RH  091%=      5-min Rain = 0
KME1 130704Z 19002KT M03/M05 A3031 RMK A01 T10331046  RH  091%=      5-min Rain = 0
KME1 130705Z 19002KT M03/M05 A303 RMK A01 T10331046  RH  091%=      5-min Rain = 0
KME1 130706Z 19002KT M03/M05 A303 RMK A01 T10331046  RH  091%=      5-min Rain = 0
KME1 130707Z 20002KT M03/M05 A303 RMK A01 T10331046  RH  091%=      5-min Rain = 0
KME1 130708Z 20002KT M03/M05 A303 RMK A01 T10331045  RH  091%=      5-min Rain = 0
KME1 130709Z 21002KT M03/M05 A303 RMK A01 T10331045  RH  091%=      5-min Rain = 0
KME1 130710Z 21002KT M03/M05 A303 RMK A01 T10331045  RH  091%=      5-min Rain = 0
KME1 130711Z 21003KT M03/M05 A303 RMK A01 T10331045  RH  091%=      5-min Rain = 0
KME1 130712Z 21003KT M03/M05 A303 RMK A01 T10331045  RH  091%=      5-min Rain = 0
KME1 130713Z 21003KT M03/M05 A303 RMK A01 T10331045  RH  091%=      5-min Rain = 0
KME1 130714Z 20003KT M03/M05 A303 RMK A01 T10331045  RH  091%=      5-min Rain = 0
KME1 130715Z 21003KT M03/M05 A303 RMK A01 T10331045  RH  091%=      5-min Rain = 0
KME1 130716Z 21004KT M03/M04 A303 RMK A01 T10331044  RH  092%=      5-min Rain = 0
KME1 130717Z 21004KT M03/M04 A3031 RMK A01 T10331044  RH  092%=      5-min Rain = 0
KME1 130718Z 21004KT M03/M04 A3031 RMK A01 T10331044  RH  092%=      5-min Rain = 0
KME1 130719Z 21004KT M03/M05 A3031 RMK A01 T10331045  RH  092%=      5-min Rain = 0
KME1 130720Z 21004KT M03/M05 A3031 RMK A01 T10331045  RH  092%=      5-min Rain = 0
KME1 130721Z 20004KT M03/M05 A303 RMK A01 T10341046  RH  091%=      5-min Rain = 0
KME1 130722Z 20004KT M03/M05 A303 RMK A01 T10341047  RH  091%=      5-min Rain = 0
KME1 130723Z 20004KT M03/M05 A303 RMK A01 T10341048  RH  090%=      5-min Rain = 0
KME1 130724Z 20004KT M03/M05 A303 RMK A01 T10341048  RH  090%=      5-min Rain = 0
KME1 130725Z 19004KT M03/M05 A303 RMK A01 T10341049  RH  089%=      5-min Rain = 0
KME1 130726Z 19003KT M03/M05 A303 RMK A01 T10341050  RH  089%=      5-min Rain = 0
KME1 130727Z 19004KT M03/M05 A303 RMK A01 T10341050  RH  089%=      5-min Rain = 0
KME1 130728Z 19004KT M03/M05 A303 RMK A01 T10341051  RH  088%=      5-min Rain = 0
KME1 130729Z 19004KT M03/M05 A303 RMK A01 T10341052  RH  087%=      5-min Rain = 0
KME1 130730Z 19004KT M03/M05 A303 RMK A01 T10341053  RH  087%=      5-min Rain = 0
KME1 130731Z 19004KT M03/M05 A303 RMK A01 T10331053  RH  087%=      5-min Rain = 0
KME1 130732Z 19004KT M03/M05 A303 RMK A01 T10331053  RH  086%=      5-min Rain = 0
KME1 130733Z 19004KT M03/M05 A303 RMK A01 T10331054  RH  086%=      5-min Rain = 0
KME1 130734Z 19003KT M03/M05 A303 RMK A01 T10331054  RH  085%=      5-min Rain = 0
KME1 130735Z 19004KT M03/M05 A303 RMK A01 T10331054  RH  085%=      5-min Rain = 0
KME1 130736Z 19004KT M03/M06 A303 RMK A01 T10331055  RH  085%=      5-min Rain = 0
KME1 130737Z 19005KT M03/M06 A303 RMK A01 T10331055  RH  085%=      5-min Rain = 0
KME1 130738Z 19004KT M03/M06 A303 RMK A01 T10331056  RH  084%=      5-min Rain = 0
KME1 130739Z 19005KT M03/M06 A303 RMK A01 T10331057  RH  084%=      5-min Rain = 0
KME1 130740Z 19004KT M03/M06 A303 RMK A01 T10341058  RH  083%=      5-min Rain = 0
KME1 130741Z 20005KT M03/M06 A303 RMK A01 T10341059  RH  083%=      5-min Rain = 0
KME1 130742Z 20006KT M03/M06 A303 RMK A01 T10341060  RH  082%=      5-min Rain = 0
KME1 130743Z 20006KT M03/M06 A303 RMK A01 T10341061  RH  082%=      5-min Rain = 0
KME1 130744Z 20006KT M03/M06 A303 RMK A01 T10331061  RH  081%=      5-min Rain = 0
KME1 130745Z 20006KT M03/M06 A303 RMK A01 T10331061  RH  081%=      5-min Rain = 0
KME1 130746Z 20006KT M03/M06 A303 RMK A01 T10331062  RH  080%=      5-min Rain = 0
KME1 130747Z 20006KT M03/M06 A303 RMK A01 T10331062  RH  080%=      5-min Rain = 0
KME1 130748Z 21006KT M03/M06 A303 RMK A01 T10331063  RH  080%=      5-min Rain = 0
KME1 130749Z 21006KT M03/M06 A303 RMK A01 T10331063  RH  079%=      5-min Rain = 0
KME1 130750Z 21007KT M03/M06 A303 RMK A01 T10331064  RH  079%=      5-min Rain = 0
KME1 130751Z 21006KT M03/M06 A303 RMK A01 T10331064  RH  079%=      5-min Rain = 0
KME1 130752Z 20006KT M03/M06 A303 RMK A01 T10321064  RH  078%=      5-min Rain = 0
KME1 130753Z 21005KT M03/M07 A303 RMK A01 T10321065  RH  078%=      5-min Rain = 0
KME1 130754Z 21005KT M03/M07 A303 RMK A01 T10321065  RH  078%=      5-min Rain = 0
KME1 130755Z 21005KT M03/M07 A303 RMK A01 T10321066  RH  078%=      5-min Rain = 0
KME1 130756Z 21005KT M03/M07 A303 RMK A01 T10321066  RH  078%=      5-min Rain = 0
KME1 130757Z 21005KT M03/M07 A303 RMK A01 T10321066  RH  078%=      5-min Rain = 0
KME1 130758Z 21005KT M03/M07 A303 RMK A01 T10321066  RH  077%=      5-min Rain = 0
KME1 130759Z 21006KT M03/M07 A303 RMK A01 T10321067  RH  077%=      5-min Rain = 0
KME1 130800Z 21006KT M03/M07 A303 RMK A01 T10321067  RH  077%=      5-min Rain = 0
KME1 130801Z 21006KT M03/M07 A303 RMK A01 T10321068  RH  076%=      5-min Rain = 0
KME1 130802Z 20006KT M03/M07 A303 RMK A01 T10321068  RH  076%=      5-min Rain = 0
KME1 130803Z 20006KT M03/M07 A303 RMK A01 T10321068  RH  076%=      5-min Rain = 0
KME1 130804Z 20006KT M03/M07 A303 RMK A01 T10321068  RH  076%=      5-min Rain = 0
KME1 130805Z 20006KT M03/M07 A303 RMK A01 T10311068  RH  076%=      5-min Rain = 0
KME1 130806Z 20005KT M03/M07 A303 RMK A01 T10311068  RH  076%=      5-min Rain = 0
KME1 130807Z 20006KT M03/M07 A303 RMK A01 T10311069  RH  076%=      5-min Rain = 0
KME1 130808Z 20006KT M03/M07 A303 RMK A01 T10311069  RH  075%=      5-min Rain = 0
KME1 130809Z 21006KT M03/M07 A303 RMK A01 T10311069  RH  075%=      5-min Rain = 0
KME1 130810Z 21006KT M03/M07 A303 RMK A01 T10311069  RH  075%=      5-min Rain = 0
KME1 130811Z 21006KT M03/M07 A303 RMK A01 T10311069  RH  075%=      5-min Rain = 0
KME1 130812Z 21006KT M03/M07 A303 RMK A01 T10311069  RH  075%=      5-min Rain = 0
KME1 130813Z 21006KT M03/M07 A303 RMK A01 T10311069  RH  075%=      5-min Rain = 0
KME1 130814Z 21006KT M03/M07 A303 RMK A01 T10301069  RH  074%=      5-min Rain = 0
KME1 130815Z 21006KT M03/M07 A303 RMK A01 T10301070  RH  074%=      5-min Rain = 0
KME1 130816Z 21006KT M03/M07 A303 RMK A01 T10301070  RH  074%=      5-min Rain = 0
KME1 130817Z 22006KT M03/M07 A303 RMK A01 T10291070  RH  073%=      5-min Rain = 0
KME1 130818Z 22006KT M03/M07 A303 RMK A01 T10291071  RH  073%=      5-min Rain = 0
KME1 130819Z 22006KT M03/M07 A3029 RMK A01 T10291072  RH  072%=      5-min Rain = 0
KME1 130820Z 21006KT M03/M07 A3029 RMK A01 T10291071  RH  072%=      5-min Rain = 0
KME1 130821Z 21006KT M03/M07 A3029 RMK A01 T10291072  RH  072%=      5-min Rain = 0
KME1 130822Z 21006KT M03/M07 A3029 RMK A01 T10291072  RH  072%=      5-min Rain = 0
KME1 130823Z 21007KT M03/M07 A3029 RMK A01 T10291071  RH  072%=      5-min Rain = 0
KME1 130824Z 21006KT M03/M07 A303 RMK A01 T10281071  RH  072%=      5-min Rain = 0
KME1 130825Z 21006KT M03/M07 A303 RMK A01 T10281072  RH  072%=      5-min Rain = 0
KME1 130826Z 21006KT M03/M07 A3029 RMK A01 T10281072  RH  072%=      5-min Rain = 0
KME1 130827Z 21006KT M03/M07 A3029 RMK A01 T10281072  RH  072%=      5-min Rain = 0
KME1 130828Z 21006KT M03/M07 A3029 RMK A01 T10281073  RH  071%=      5-min Rain = 0
KME1 130829Z 21006KT M03/M07 A3029 RMK A01 T10281073  RH  071%=      5-min Rain = 0
KME1 130830Z 21006KT M03/M07 A3029 RMK A01 T10281073  RH  071%=      5-min Rain = 0
KME1 130831Z 21006KT M03/M07 A3029 RMK A01 T10281073  RH  071%=      5-min Rain = 0
KME1 130832Z 21005KT M03/M07 A3029 RMK A01 T10271073  RH  071%=      5-min Rain = 0
KME1 130833Z 21006KT M03/M07 A3029 RMK A01 T10271073  RH  071%=      5-min Rain = 0
KME1 130834Z 21006KT M03/M07 A3029 RMK A01 T10271073  RH  071%=      5-min Rain = 0
KME1 130835Z 20005KT M03/M07 A3029 RMK A01 T10271073  RH  071%=      5-min Rain = 0
KME1 130836Z 20005KT M03/M07 A3029 RMK A01 T10281073  RH  071%=      5-min Rain = 0
KME1 130837Z 20005KT M03/M07 A3029 RMK A01 T10281072  RH  072%=      5-min Rain = 0
KME1 130838Z 20005KT M03/M07 A3029 RMK A01 T10281072  RH  072%=      5-min Rain = 0
KME1 130839Z 20005KT M03/M07 A3029 RMK A01 T10291072  RH  072%=      5-min Rain = 0
KME1 130840Z 20004KT M03/M07 A3029 RMK A01 T10291073  RH  072%=      5-min Rain = 0
KME1 130841Z 20004KT M03/M07 A3029 RMK A01 T10291073  RH  071%=      5-min Rain = 0
KME1 130842Z 20004KT M03/M07 A3029 RMK A01 T10291074  RH  071%=      5-min Rain = 0
KME1 130843Z 21004KT M03/M07 A3029 RMK A01 T10281073  RH  071%=      5-min Rain = 0
KME1 130844Z 21004KT M03/M07 A3029 RMK A01 T10281073  RH  072%=      5-min Rain = 0
KME1 130845Z 21004KT M03/M07 A3029 RMK A01 T10281072  RH  072%=      5-min Rain = 0
KME1 130846Z 21003KT M03/M07 A3029 RMK A01 T10281072  RH  072%=      5-min Rain = 0
KME1 130847Z 21003KT M03/M07 A3029 RMK A01 T10291072  RH  072%=      5-min Rain = 0
KME1 130848Z 21003KT M03/M07 A3029 RMK A01 T10291071  RH  073%=      5-min Rain = 0
KME1 130849Z 21003KT M03/M07 A3029 RMK A01 T10291071  RH  073%=      5-min Rain = 0
KME1 130850Z 21003KT M03/M07 A3029 RMK A01 T10291070  RH  073%=      5-min Rain = 0
KME1 130851Z 22003KT M03/M07 A3029 RMK A01 T10291069  RH  074%=      5-min Rain = 0
KME1 130852Z 22002KT M03/M07 A3029 RMK A01 T10301069  RH  074%=      5-min Rain = 0
KME1 130853Z 22003KT M03/M07 A3029 RMK A01 T10301069  RH  074%=      5-min Rain = 0
KME1 130854Z 22002KT M03/M07 A3029 RMK A01 T10301069  RH  074%=      5-min Rain = 0
KME1 130855Z 23002KT M03/M07 A3029 RMK A01 T10301069  RH  075%=      5-min Rain = 0
KME1 130856Z 23002KT M03/M07 A3029 RMK A01 T10311068  RH  076%=      5-min Rain = 0
KME1 130857Z 22001KT M03/M07 A3028 RMK A01 T10301068  RH  075%=      5-min Rain = 0
KME1 130858Z 22001KT M03/M07 A3028 RMK A01 T10301069  RH  075%=      5-min Rain = 0
KME1 130859Z 22000KT M03/M07 A3028 RMK A01 T10301070  RH  074%=      5-min Rain = 0
KME1 130900Z 00000KT M03/M07 A3028 RMK A01 T10301070  RH  074%=      5-min Rain = 0
KME1 130901Z 00000KT M03/M07 A3028 RMK A01 T10301070  RH  074%=      5-min Rain = 0
KME1 130902Z 00000KT M03/M07 A3028 RMK A01 T10301067  RH  076%=      5-min Rain = 0
KME1 130903Z 00000KT M03/M07 A3028 RMK A01 T10311065  RH  077%=      5-min Rain = 0
KME1 130904Z 00000KT M03/M06 A3028 RMK A01 T10321064  RH  078%=      5-min Rain = 0
KME1 130905Z 00000KT M03/M06 A3028 RMK A01 T10321063  RH  079%=      5-min Rain = 0
KME1 130906Z 00000KT M03/M06 A3028 RMK A01 T10331063  RH  080%=      5-min Rain = 0
KME1 130907Z 00000KT M03/M06 A3028 RMK A01 T10341063  RH  080%=      5-min Rain = 0
KME1 130908Z 00000KT M03/M06 A3027 RMK A01 T10341062  RH  081%=      5-min Rain = 0
KME1 130909Z 00000KT M03/M06 A3027 RMK A01 T10341062  RH  081%=      5-min Rain = 0
KME1 130910Z 22000KT M04/M06 A3027 RMK A01 T10351062  RH  082%=      5-min Rain = 0
KME1 130911Z 22000KT M04/M06 A3027 RMK A01 T10351061  RH  082%=      5-min Rain = 0
KME1 130912Z 00000KT M04/M06 A3027 RMK A01 T10351061  RH  082%=      5-min Rain = 0
KME1 130913Z 01000KT M04/M06 A3027 RMK A01 T10351060  RH  082%=      5-min Rain = 0
KME1 130914Z 01000KT M04/M06 A3027 RMK A01 T10351059  RH  083%=      5-min Rain = 0
KME1 130915Z 02001KT M04/M06 A3026 RMK A01 T10351059  RH  083%=      5-min Rain = 0
KME1 130916Z 03001KT M04/M06 A3026 RMK A01 T10351061  RH  082%=      5-min Rain = 0
KME1 130917Z 03001KT M03/M06 A3026 RMK A01 T10341061  RH  081%=      5-min Rain = 0
KME1 130918Z 02002KT M03/M06 A3026 RMK A01 T10341061  RH  082%=      5-min Rain = 0
KME1 130919Z 02002KT M03/M06 A3026 RMK A01 T10341061  RH  082%=      5-min Rain = 0
KME1 130920Z 01002KT M03/M06 A3026 RMK A01 T10341060  RH  083%=      5-min Rain = 0
KME1 130921Z 01002KT M03/M06 A3026 RMK A01 T10341059  RH  083%=      5-min Rain = 0
KME1 130922Z 01002KT M03/M06 A3026 RMK A01 T10341059  RH  083%=      5-min Rain = 0
KME1 130923Z 01002KT M03/M06 A3026 RMK A01 T10341060  RH  083%=      5-min Rain = 0
KME1 130924Z 01002KT M03/M06 A3026 RMK A01 T10341059  RH  083%=      5-min Rain = 0
KME1 130925Z 01002KT M03/M06 A3026 RMK A01 T10341059  RH  083%=      5-min Rain = 0
KME1 130926Z 01001KT M03/M06 A3025 RMK A01 T10331058  RH  083%=      5-min Rain = 0
KME1 130927Z 01000KT M03/M06 A3025 RMK A01 T10331057  RH  083%=      5-min Rain = 0
KME1 130928Z 00000KT M03/M06 A3025 RMK A01 T10331058  RH  083%=      5-min Rain = 0
KME1 130929Z 00000KT M03/M06 A3025 RMK A01 T10321058  RH  082%=      5-min Rain = 0
KME1 130930Z 00000KT M03/M06 A3025 RMK A01 T10321057  RH  083%=      5-min Rain = 0
KME1 130931Z 00000KT M03/M06 A3025 RMK A01 T10321056  RH  083%=      5-min Rain = 0
KME1 130932Z 00000KT M03/M06 A3025 RMK A01 T10311056  RH  083%=      5-min Rain = 0
KME1 130933Z 00000KT M03/M06 A3025 RMK A01 T10311056  RH  083%=      5-min Rain = 0
KME1 130934Z 00000KT M03/M06 A3025 RMK A01 T10311056  RH  083%=      5-min Rain = 0
KME1 130935Z 00000KT M03/M06 A3025 RMK A01 T10301055  RH  083%=      5-min Rain = 0
KME1 130936Z 00000KT M03/M06 A3025 RMK A01 T10311058  RH  082%=      5-min Rain = 0
KME1 130937Z 00000KT M03/M06 A3025 RMK A01 T10301057  RH  082%=      5-min Rain = 0
KME1 130938Z 00000KT M03/M06 A3025 RMK A01 T10301055  RH  083%=      5-min Rain = 0
KME1 130939Z 00000KT M03/M05 A3025 RMK A01 T10291054  RH  083%=      5-min Rain = 0
KME1 130940Z 00000KT M03/M05 A3025 RMK A01 T10291053  RH  083%=      5-min Rain = 0
KME1 130941Z 00000KT M03/M05 A3025 RMK A01 T10291054  RH  083%=      5-min Rain = 0
KME1 130942Z 20001KT M03/M05 A3025 RMK A01 T10291053  RH  084%=      5-min Rain = 0
KME1 130943Z 19001KT M03/M06 A3025 RMK A01 T10291056  RH  082%=      5-min Rain = 0
KME1 130944Z 17001KT M03/M06 A3025 RMK A01 T10291058  RH  081%=      5-min Rain = 0
KME1 130945Z 16001KT M03/M06 A3025 RMK A01 T10281058  RH  080%=      5-min Rain = 0
KME1 130946Z 17001KT M03/M06 A3025 RMK A01 T10271056  RH  081%=      5-min Rain = 0
KME1 130947Z 16002KT M03/M06 A3025 RMK A01 T10271055  RH  081%=      5-min Rain = 0
KME1 130948Z 17002KT M03/M05 A3025 RMK A01 T10271054  RH  082%=      5-min Rain = 0
KME1 130949Z 17002KT M03/M05 A3025 RMK A01 T10281053  RH  082%=      5-min Rain = 0
KME1 130950Z 17002KT M03/M05 A3025 RMK A01 T10281052  RH  084%=      5-min Rain = 0
KME1 130951Z 17002KT M03/M05 A3025 RMK A01 T10281052  RH  084%=      5-min Rain = 0
KME1 130952Z 17003KT M03/M05 A3025 RMK A01 T10291053  RH  084%=      5-min Rain = 0
KME1 130953Z 17003KT M03/M05 A3025 RMK A01 T10291053  RH  084%=      5-min Rain = 0
KME1 130954Z 17003KT M03/M05 A3025 RMK A01 T10301052  RH  085%=      5-min Rain = 0
KME1 130955Z 17002KT M03/M05 A3025 RMK A01 T10301051  RH  085%=      5-min Rain = 0
KME1 130956Z 17002KT M03/M05 A3025 RMK A01 T10301050  RH  086%=      5-min Rain = 0
KME1 130957Z 17002KT M03/M05 A3024 RMK A01 T10301049  RH  086%=      5-min Rain = 0
KME1 130958Z 17002KT M03/M05 A3024 RMK A01 T10301049  RH  086%=      5-min Rain = 0
KME1 130959Z 17002KT M03/M05 A3024 RMK A01 T10291049  RH  086%=      5-min Rain = 0
KME1 131000Z 17001KT M03/M05 A3024 RMK A01 T10291048  RH  087%=      5-min Rain = 0
KME1 131001Z 17001KT M03/M05 A3024 RMK A01 T10291048  RH  087%=      5-min Rain = 0
KME1 131002Z 18001KT M03/M05 A3024 RMK A01 T10291048  RH  087%=      5-min Rain = 0
KME1 131003Z 18001KT M03/M05 A3024 RMK A01 T10291047  RH  087%=      5-min Rain = 0
KME1 131004Z 18000KT M03/M05 A3024 RMK A01 T10291046  RH  088%=      5-min Rain = 0
KME1 131005Z 00000KT M03/M05 A3024 RMK A01 T10291047  RH  087%=      5-min Rain = 0
KME1 131006Z 00000KT M03/M05 A3024 RMK A01 T10291047  RH  087%=      5-min Rain = 0
KME1 131007Z 00000KT M03/M05 A3024 RMK A01 T10291047  RH  087%=      5-min Rain = 0
KME1 131008Z 00000KT M03/M05 A3024 RMK A01 T10291047  RH  087%=      5-min Rain = 0
KME1 131009Z 00000KT M03/M05 A3024 RMK A01 T10281047  RH  087%=      5-min Rain = 0
KME1 131010Z 00000KT M03/M05 A3024 RMK A01 T10281048  RH  087%=      5-min Rain = 0
KME1 131011Z 00000KT M03/M05 A3024 RMK A01 T10281047  RH  087%=      5-min Rain = 0
KME1 131012Z 00000KT M03/M05 A3024 RMK A01 T10281046  RH  087%=      5-min Rain = 0
KME1 131013Z 00000KT M03/M05 A3024 RMK A01 T10271045  RH  087%=      5-min Rain = 0
KME1 131014Z 00000KT M03/M04 A3024 RMK A01 T10271044  RH  088%=      5-min Rain = 0
KME1 131015Z 00000KT M03/M04 A3024 RMK A01 T10271044  RH  088%=      5-min Rain = 0
KME1 131016Z 18000KT M03/M04 A3024 RMK A01 T10271043  RH  089%=      5-min Rain = 0
KME1 131017Z 00000KT M03/M04 A3024 RMK A01 T10271042  RH  089%=      5-min Rain = 0
KME1 131018Z 18000KT M03/M04 A3024 RMK A01 T10271042  RH  089%=      5-min Rain = 0
KME1 131019Z 19000KT M03/M04 A3023 RMK A01 T10271042  RH  090%=      5-min Rain = 0
KME1 131020Z 19001KT M03/M04 A3023 RMK A01 T10271041  RH  090%=      5-min Rain = 0
KME1 131021Z 19001KT M03/M04 A3023 RMK A01 T10261041  RH  090%=      5-min Rain = 0
KME1 131022Z 19001KT M03/M04 A3023 RMK A01 T10261041  RH  090%=      5-min Rain = 0
KME1 131023Z 19001KT M03/M04 A3023 RMK A01 T10261040  RH  090%=      5-min Rain = 0
KME1 131024Z 19001KT M03/M04 A3023 RMK A01 T10271041  RH  090%=      5-min Rain = 0
KME1 131025Z 19001KT M03/M04 A3023 RMK A01 T10261042  RH  089%=      5-min Rain = 0
KME1 131026Z 18002KT M03/M04 A3023 RMK A01 T10261043  RH  088%=      5-min Rain = 0
KME1 131027Z 18002KT M03/M04 A3023 RMK A01 T10271044  RH  088%=      5-min Rain = 0
KME1 131028Z 18002KT M03/M04 A3023 RMK A01 T10271043  RH  088%=      5-min Rain = 0
KME1 131029Z 18002KT M03/M04 A3023 RMK A01 T10271043  RH  088%=      5-min Rain = 0
KME1 131030Z 18001KT M03/M04 A3023 RMK A01 T10261042  RH  089%=      5-min Rain = 0
KME1 131031Z 18001KT M03/M04 A3023 RMK A01 T10261041  RH  089%=      5-min Rain = 0
KME1 131032Z 18001KT M03/M04 A3023 RMK A01 T10261040  RH  090%=      5-min Rain = 0
KME1 131033Z 18001KT M03/M04 A3023 RMK A01 T10261041  RH  089%=      5-min Rain = 0
KME1 131034Z 18000KT M03/M04 A3023 RMK A01 T10261043  RH  088%=      5-min Rain = 0
KME1 131035Z 00000KT M03/M05 A3022 RMK A01 T10261045  RH  087%=      5-min Rain = 0
KME1 131036Z 00000KT M03/M05 A3022 RMK A01 T10261045  RH  086%=      5-min Rain = 0
KME1 131037Z 00000KT M03/M05 A3022 RMK A01 T10251046  RH  086%=      5-min Rain = 0
KME1 131038Z 00000KT M03/M05 A3022 RMK A01 T10251045  RH  086%=      5-min Rain = 0
KME1 131039Z 00000KT M03/M04 A3022 RMK A01 T10251044  RH  087%=      5-min Rain = 0
KME1 131040Z 00000KT M02/M04 A3022 RMK A01 T10241042  RH  087%=      5-min Rain = 0
KME1 131041Z 00000KT M02/M04 A3022 RMK A01 T10241041  RH  088%=      5-min Rain = 0
KME1 131042Z 00000KT M02/M04 A3022 RMK A01 T10241042  RH  088%=      5-min Rain = 0
KME1 131043Z 00000KT M02/M04 A3022 RMK A01 T10241042  RH  087%=      5-min Rain = 0
KME1 131044Z 00000KT M02/M04 A3022 RMK A01 T10241043  RH  087%=      5-min Rain = 0
KME1 131045Z 00000KT M02/M04 A3022 RMK A01 T10241043  RH  087%=      5-min Rain = 0
KME1 131046Z 00000KT M02/M04 A3022 RMK A01 T10241043  RH  087%=      5-min Rain = 0
KME1 131047Z 00000KT M02/M04 A3022 RMK A01 T10241044  RH  087%=      5-min Rain = 0
KME1 131048Z 00000KT M03/M04 A3022 RMK A01 T10251044  RH  087%=      5-min Rain = 0
KME1 131049Z 00000KT M02/M04 A3022 RMK A01 T10241044  RH  086%=      5-min Rain = 0
KME1 131050Z 00000KT M02/M04 A3022 RMK A01 T10241044  RH  086%=      5-min Rain = 0
KME1 131051Z 00000KT M02/M04 A3022 RMK A01 T10241043  RH  087%=      5-min Rain = 0
KME1 131052Z 00000KT M02/M04 A3022 RMK A01 T10241043  RH  087%=      5-min Rain = 0
KME1 131053Z 00000KT M02/M04 A3022 RMK A01 T10241043  RH  087%=      5-min Rain = 0
KME1 131054Z 00000KT M02/M04 A3022 RMK A01 T10241043  RH  087%=      5-min Rain = 0
KME1 131055Z 00000KT M02/M04 A3022 RMK A01 T10241044  RH  086%=      5-min Rain = 0
KME1 131056Z 00000KT M02/M04 A3022 RMK A01 T10241044  RH  086%=      5-min Rain = 0
KME1 131057Z 00000KT M02/M05 A3022 RMK A01 T10231045  RH  085%=      5-min Rain = 0
KME1 131058Z 00000KT M02/M05 A3022 RMK A01 T10231046  RH  084%=      5-min Rain = 0
KME1 131059Z 00000KT M02/M05 A3022 RMK A01 T10231046  RH  084%=      5-min Rain = 0
KME1 131100Z 00000KT M02/M05 A3022 RMK A01 T10221045  RH  084%=      5-min Rain = 0
KME1 131101Z 00000KT M02/M05 A3022 RMK A01 T10221049  RH  082%=      5-min Rain = 0
KME1 131102Z 00000KT M02/M05 A3022 RMK A01 T10221053  RH  080%=      5-min Rain = 0
KME1 131103Z 00000KT M02/M05 A3022 RMK A01 T10211049  RH  081%=      5-min Rain = 0
KME1 131104Z 00000KT M02/M05 A3022 RMK A01 T10201047  RH  082%=      5-min Rain = 0
KME1 131105Z 00000KT M02/M05 A3022 RMK A01 T10201046  RH  083%=      5-min Rain = 0
KME1 131106Z 18001KT M02/M05 A3022 RMK A01 T10211046  RH  083%=      5-min Rain = 0
KME1 131107Z 17001KT M02/M05 A3022 RMK A01 T10201047  RH  082%=      5-min Rain = 0
KME1 131108Z 17001KT M02/M05 A3022 RMK A01 T10201049  RH  081%=      5-min Rain = 0
KME1 131109Z 17001KT M02/M05 A3022 RMK A01 T10201051  RH  080%=      5-min Rain = 0
KME1 131110Z 16001KT M02/M05 A3022 RMK A01 T10211052  RH  079%=      5-min Rain = 0
KME1 131111Z 16001KT M02/M05 A3022 RMK A01 T10201054  RH  078%=      5-min Rain = 0
KME1 131112Z 17001KT M02/M05 A3022 RMK A01 T10201054  RH  078%=      5-min Rain = 0
KME1 131113Z 18001KT M02/M05 A3022 RMK A01 T10201050  RH  080%=      5-min Rain = 0
KME1 131114Z 18001KT M02/M05 A3022 RMK A01 T10191048  RH  081%=      5-min Rain = 0
KME1 131115Z 18001KT M02/M05 A3022 RMK A01 T10191049  RH  080%=      5-min Rain = 0
KME1 131116Z 18001KT M02/M05 A3021 RMK A01 T10191046  RH  082%=      5-min Rain = 0
KME1 131117Z 17001KT M02/M04 A3021 RMK A01 T10191044  RH  083%=      5-min Rain = 0
KME1 131118Z 17001KT M02/M04 A3021 RMK A01 T10191043  RH  084%=      5-min Rain = 0
KME1 131119Z 18001KT M02/M04 A3021 RMK A01 T10191043  RH  084%=      5-min Rain = 0
KME1 131120Z 18001KT M02/M04 A3021 RMK A01 T10191043  RH  084%=      5-min Rain = 0
KME1 131121Z 19002KT M02/M04 A3021 RMK A01 T10191042  RH  084%=      5-min Rain = 0
KME1 131122Z 19001KT M02/M04 A3021 RMK A01 T10191042  RH  084%=      5-min Rain = 0
KME1 131123Z 18001KT M02/M04 A3021 RMK A01 T10191041  RH  085%=      5-min Rain = 0
KME1 131124Z 18002KT M02/M04 A3021 RMK A01 T10191041  RH  085%=      5-min Rain = 0
KME1 131125Z 18002KT M02/M04 A3021 RMK A01 T10201044  RH  083%=      5-min Rain = 0
KME1 131126Z 19002KT M02/M05 A3021 RMK A01 T10201048  RH  081%=      5-min Rain = 0
KME1 131127Z 19001KT M02/M05 A3021 RMK A01 T10191050  RH  080%=      5-min Rain = 0
KME1 131128Z 20002KT M02/M05 A3021 RMK A01 T10181049  RH  079%=      5-min Rain = 0
KME1 131129Z 19001KT M02/M05 A3021 RMK A01 T10181050  RH  079%=      5-min Rain = 0
KME1 131130Z 19001KT M02/M05 A302 RMK A01 T10181052  RH  077%=      5-min Rain = 0
KME1 131131Z 19001KT M02/M05 A302 RMK A01 T10181053  RH  077%=      5-min Rain = 0
KME1 131132Z 20001KT M02/M05 A302 RMK A01 T10171052  RH  077%=      5-min Rain = 0
KME1 131133Z 20001KT M02/M05 A302 RMK A01 T10171051  RH  078%=      5-min Rain = 0
KME1 131134Z 19001KT M02/M05 A302 RMK A01 T10171052  RH  077%=      5-min Rain = 0
KME1 131135Z 20001KT M02/M05 A302 RMK A01 T10171052  RH  077%=      5-min Rain = 0
KME1 131136Z 18001KT M02/M05 A3021 RMK A01 T10161051  RH  077%=      5-min Rain = 0
KME1 131137Z 19002KT M02/M05 A3021 RMK A01 T10161050  RH  078%=      5-min Rain = 0
KME1 131138Z 19002KT M02/M05 A3021 RMK A01 T10161050  RH  078%=      5-min Rain = 0
KME1 131139Z 19002KT M02/M05 A3021 RMK A01 T10161050  RH  078%=      5-min Rain = 0
KME1 131140Z 19002KT M02/M05 A3021 RMK A01 T10161050  RH  078%=      5-min Rain = 0
KME1 131141Z 20002KT M02/M05 A302 RMK A01 T10161051  RH  077%=      5-min Rain = 0
KME1 131142Z 19002KT M02/M05 A302 RMK A01 T10161051  RH  077%=      5-min Rain = 0
KME1 131143Z 21001KT M02/M05 A302 RMK A01 T10161051  RH  077%=      5-min Rain = 0
KME1 131144Z 20001KT M02/M05 A302 RMK A01 T10161049  RH  078%=      5-min Rain = 0
KME1 131145Z 20002KT M02/M05 A302 RMK A01 T10161047  RH  079%=      5-min Rain = 0
KME1 131146Z 20001KT M02/M05 A302 RMK A01 T10161046  RH  080%=      5-min Rain = 0
KME1 131147Z 20001KT M02/M05 A302 RMK A01 T10161047  RH  079%=      5-min Rain = 0
KME1 131148Z 21001KT M02/M05 A302 RMK A01 T10161049  RH  078%=      5-min Rain = 0
KME1 131149Z 20001KT M02/M05 A302 RMK A01 T10161050  RH  077%=      5-min Rain = 0
KME1 131150Z 21002KT M02/M05 A302 RMK A01 T10151050  RH  077%=      5-min Rain = 0
KME1 131151Z 21002KT M02/M05 A302 RMK A01 T10151050  RH  077%=      5-min Rain = 0
KME1 131152Z 20002KT M02/M05 A302 RMK A01 T10151050  RH  077%=      5-min Rain = 0
KME1 131153Z 22002KT M01/M05 A302 RMK A01 T10141052  RH  075%=      5-min Rain = 0
KME1 131154Z 22002KT M01/M05 A302 RMK A01 T10131052  RH  075%=      5-min Rain = 0
KME1 131155Z 21002KT M01/M05 A302 RMK A01 T10131051  RH  075%=      5-min Rain = 0
KME1 131156Z 22001KT M01/M05 A302 RMK A01 T10121050  RH  076%=      5-min Rain = 0
KME1 131157Z 20001KT M01/M05 A302 RMK A01 T10121048  RH  076%=      5-min Rain = 0
KME1 131158Z 21001KT M01/M05 A302 RMK A01 T10121047  RH  077%=      5-min Rain = 0
KME1 131159Z 21001KT M01/M05 A302 RMK A01 T10121046  RH  077%=      5-min Rain = 0
KME1 131200Z 20001KT M01/M05 A302 RMK A01 T10121048  RH  076%=      5-min Rain = 0
KME1 131201Z 20001KT M01/M05 A302 RMK A01 T10121049  RH  076%=      5-min Rain = 0
KME1 131202Z 19001KT M01/M05 A302 RMK A01 T10121045  RH  078%=      5-min Rain = 0
KME1 131203Z 19001KT M01/M05 A302 RMK A01 T10121046  RH  077%=      5-min Rain = 0
KME1 131204Z 18001KT M01/M05 A302 RMK A01 T10121049  RH  076%=      5-min Rain = 0
KME1 131205Z 15001KT M01/M05 A302 RMK A01 T10121050  RH  076%=      5-min Rain = 0
KME1 131206Z 15001KT M01/M05 A302 RMK A01 T10121049  RH  076%=      5-min Rain = 0
KME1 131207Z 14001KT M01/M05 A302 RMK A01 T10121048  RH  076%=      5-min Rain = 0
KME1 131208Z 15001KT M01/M05 A302 RMK A01 T10121048  RH  077%=      5-min Rain = 0
KME1 131209Z 17001KT M01/M05 A302 RMK A01 T10121047  RH  077%=      5-min Rain = 0
KME1 131210Z 16002KT M01/M05 A302 RMK A01 T10121047  RH  077%=      5-min Rain = 0
KME1 131211Z 16002KT M01/M05 A302 RMK A01 T10121046  RH  078%=      5-min Rain = 0
KME1 131212Z 14002KT M01/M05 A302 RMK A01 T10121047  RH  077%=      5-min Rain = 0
KME1 131213Z 16002KT M01/M05 A302 RMK A01 T10121050  RH  075%=      5-min Rain = 0
KME1 131214Z 13001KT M01/M05 A302 RMK A01 T10111052  RH  074%=      5-min Rain = 0
KME1 131215Z 15001KT M01/M05 A302 RMK A01 T10101050  RH  075%=      5-min Rain = 0
KME1 131216Z 16002KT M01/M05 A302 RMK A01 T10101050  RH  074%=      5-min Rain = 0
KME1 131217Z 17001KT M01/M05 A3019 RMK A01 T10101054  RH  072%=      5-min Rain = 0
KME1 131218Z 18001KT M01/M05 A3019 RMK A01 T10091054  RH  071%=      5-min Rain = 0
KME1 131219Z 15001KT M01/M06 A3019 RMK A01 T10091055  RH  071%=      5-min Rain = 0
KME1 131220Z 19001KT M01/M05 A3019 RMK A01 T10081054  RH  071%=      5-min Rain = 0
KME1 131221Z 20002KT M01/M05 A3019 RMK A01 T10081054  RH  071%=      5-min Rain = 0
KME1 131222Z 19003KT M01/M05 A3019 RMK A01 T10081054  RH  071%=      5-min Rain = 0
KME1 131223Z 20003KT M01/M06 A3019 RMK A01 T10071055  RH  070%=      5-min Rain = 0
KME1 131224Z 19002KT M01/M05 A3019 RMK A01 T10061054  RH  070%=      5-min Rain = 0
KME1 131225Z 20002KT M01/M05 A3019 RMK A01 T10061053  RH  070%=      5-min Rain = 0
KME1 131226Z 19002KT M01/M05 A3019 RMK A01 T10061054  RH  070%=      5-min Rain = 0
KME1 131227Z 19002KT M01/M05 A3019 RMK A01 T10061054  RH  070%=      5-min Rain = 0
KME1 131228Z 19002KT M01/M06 A3019 RMK A01 T10061055  RH  070%=      5-min Rain = 0
KME1 131229Z 20003KT M01/M06 A3019 RMK A01 T10051055  RH  069%=      5-min Rain = 0
KME1 131230Z 22002KT M01/M06 A3019 RMK A01 T10051056  RH  069%=      5-min Rain = 0
KME1 131231Z 21002KT M01/M06 A3019 RMK A01 T10051055  RH  069%=      5-min Rain = 0
KME1 131232Z 21002KT M01/M06 A3019 RMK A01 T10051055  RH  069%=      5-min Rain = 0
KME1 131233Z 21002KT M01/M06 A3019 RMK A01 T10051056  RH  069%=      5-min Rain = 0
KME1 131234Z 20003KT M01/M06 A3019 RMK A01 T10051056  RH  069%=      5-min Rain = 0
KME1 131235Z 20003KT M01/M06 A3019 RMK A01 T10051055  RH  069%=      5-min Rain = 0
KME1 131236Z 20004KT M01/M06 A3019 RMK A01 T10051056  RH  069%=      5-min Rain = 0
KME1 131237Z 19003KT M01/M06 A3019 RMK A01 T10051056  RH  068%=      5-min Rain = 0
KME1 131238Z 20003KT M01/M06 A3019 RMK A01 T10051056  RH  068%=      5-min Rain = 0
KME1 131239Z 19002KT M00/M06 A3019 RMK A01 T10041058  RH  067%=      5-min Rain = 0
KME1 131240Z 20003KT M00/M06 A3019 RMK A01 T10041057  RH  067%=      5-min Rain = 0
KME1 131241Z 20003KT M00/M06 A3019 RMK A01 T10041057  RH  067%=      5-min Rain = 0
KME1 131242Z 19003KT M00/M06 A3019 RMK A01 T10041058  RH  067%=      5-min Rain = 0
KME1 131243Z 21004KT M00/M06 A3019 RMK A01 T10041057  RH  067%=      5-min Rain = 0
KME1 131244Z 20004KT M00/M06 A3019 RMK A01 T10031058  RH  066%=      5-min Rain = 0
KME1 131245Z 20002KT M00/M06 A3019 RMK A01 T10031059  RH  066%=      5-min Rain = 0
KME1 131246Z 20002KT M00/M06 A3018 RMK A01 T10021058  RH  066%=      5-min Rain = 0
KME1 131247Z 20004KT M00/M06 A3018 RMK A01 T10021059  RH  065%=      5-min Rain = 0
KME1 131248Z 20003KT M00/M06 A3018 RMK A01 T10021061  RH  064%=      5-min Rain = 0
KME1 131249Z 21002KT M00/M06 A3018 RMK A01 T10011060  RH  064%=      5-min Rain = 0
KME1 131250Z 21002KT M00/M06 A3018 RMK A01 T10011061  RH  064%=      5-min Rain = 0
KME1 131251Z 21002KT M00/M06 A3018 RMK A01 T10011060  RH  064%=      5-min Rain = 0
KME1 131252Z 22002KT M00/M06 A3018 RMK A01 T10011062  RH  064%=      5-min Rain = 0
KME1 131253Z 21002KT M00/M06 A3018 RMK A01 T10011060  RH  064%=      5-min Rain = 0
KME1 131254Z 22001KT M00/M06 A3017 RMK A01 T10011061  RH  064%=      5-min Rain = 0
KME1 131255Z 18001KT M00/M06 A3017 RMK A01 T10011060  RH  064%=      5-min Rain = 0
KME1 131256Z 22001KT M00/M06 A3017 RMK A01 T10011060  RH  064%=      5-min Rain = 0
KME1 131257Z 23001KT M00/M06 A3017 RMK A01 T10011061  RH  064%=      5-min Rain = 0
KME1 131258Z 22002KT M00/M06 A3017 RMK A01 T10011063  RH  063%=      5-min Rain = 0
KME1 131259Z 21002KT 00/06 A3017 RMK A01 T00-00-63  RH  063%=      5-min Rain = 0
KME1 131300Z 19004KT 00/06 A3017 RMK A01 T00000-64  RH  062%=      5-min Rain = 0
KME1 131301Z 19003KT 00/M06 A3017 RMK A01 T00011063  RH  062%=      5-min Rain = 0
KME1 131302Z 20003KT 00/M06 A3017 RMK A01 T00011063  RH  062%=      5-min Rain = 0
KME1 131303Z 19005KT 00/M06 A3017 RMK A01 T00021063  RH  062%=      5-min Rain = 0
KME1 131304Z 19005KT 00/M06 A3017 RMK A01 T00021062  RH  062%=      5-min Rain = 0
KME1 131305Z 19004KT 00/M06 A3017 RMK A01 T00031061  RH  062%=      5-min Rain = 0
KME1 131306Z 19006KT 00/M06 A3017 RMK A01 T00041063  RH  061%=      5-min Rain = 0
KME1 131307Z 19004KT 01/M06 A3017 RMK A01 T00051064  RH  060%=      5-min Rain = 0
KME1 131308Z 20005KT 01/M06 A3017 RMK A01 T00061064  RH  059%=      5-min Rain = 0
KME1 131309Z 20005KT 01/M07 A3017 RMK A01 T00071065  RH  059%=      5-min Rain = 0
KME1 131310Z 20004KT 01/M07 A3016 RMK A01 T00071065  RH  058%=      5-min Rain = 0
KME1 131311Z 21004KT 01/M06 A3016 RMK A01 T00081064  RH  059%=      5-min Rain = 0
KME1 131312Z 18003KT 01/M07 A3016 RMK A01 T00081065  RH  058%=      5-min Rain = 0
KME1 131313Z 20005KT 01/M07 A3016 RMK A01 T00081065  RH  058%=      5-min Rain = 0
KME1 131314Z 19005KT 01/M07 A3016 RMK A01 T00081065  RH  058%=      5-min Rain = 0
KME1 131315Z 19006KT 01/M07 A3016 RMK A01 T00091066  RH  057%=      5-min Rain = 0
KME1 131316Z 20004KT 01/M07 A3016 RMK A01 T00091065  RH  057%=      5-min Rain = 0
KME1 131317Z 19008KT 01/M07 A3016 RMK A01 T00091065  RH  058%=      5-min Rain = 0
KME1 131318Z 19008KT 01/M07 A3016 RMK A01 T00101066  RH  057%=      5-min Rain = 0
KME1 131319Z 19006KT 01/M07 A3016 RMK A01 T00101066  RH  057%=      5-min Rain = 0
KME1 131320Z 19008KT 01/M07 A3016 RMK A01 T00101065  RH  057%=      5-min Rain = 0
KME1 131321Z 19009KT 01/M07 A3016 RMK A01 T00101065  RH  057%=      5-min Rain = 0
KME1 131322Z 18008KT 01/M07 A3016 RMK A01 T00111065  RH  057%=      5-min Rain = 0
KME1 131323Z 19008KT 01/M07 A3016 RMK A01 T00111065  RH  057%=      5-min Rain = 0
KME1 131324Z 19010KT 01/M07 A3016 RMK A01 T00121065  RH  057%=      5-min Rain = 0
KME1 131325Z 19009KT 01/M07 A3016 RMK A01 T00121067  RH  056%=      5-min Rain = 0
KME1 131326Z 19008KT 01/M07 A3016 RMK A01 T00131066  RH  056%=      5-min Rain = 0
KME1 131327Z 19009KT 01/M07 A3016 RMK A01 T00131066  RH  055%=      5-min Rain = 0
KME1 131328Z 19012KT 01/M07 A3016 RMK A01 T00131066  RH  056%=      5-min Rain = 0
KME1 131329Z 19010KT 01/M07 A3016 RMK A01 T00131067  RH  055%=      5-min Rain = 0
KME1 131330Z 20011KT 01/M07 A3016 RMK A01 T00141067  RH  055%=      5-min Rain = 0
KME1 131331Z 19011KT 01/M07 A3016 RMK A01 T00141067  RH  054%=      5-min Rain = 0
KME1 131332Z 19008KT 02/M07 A3016 RMK A01 T00151067  RH  055%=      5-min Rain = 0
KME1 131333Z 20012KT 02/M07 A3016 RMK A01 T00151066  RH  055%=      5-min Rain = 0
KME1 131334Z 20012KT 02/M07 A3016 RMK A01 T00151067  RH  054%=      5-min Rain = 0
KME1 131335Z 20010KT 02/M07 A3016 RMK A01 T00151067  RH  054%=      5-min Rain = 0
KME1 131336Z 20009KT 02/M07 A3015 RMK A01 T00161067  RH  054%=      5-min Rain = 0
KME1 131337Z 19010KT 02/M07 A3015 RMK A01 T00161067  RH  054%=      5-min Rain = 0
KME1 131338Z 19008KT 02/M07 A3015 RMK A01 T00161067  RH  054%=      5-min Rain = 0
KME1 131339Z 19010KT 02/M07 A3015 RMK A01 T00161066  RH  054%=      5-min Rain = 0
KME1 131340Z 19011KT 02/M07 A3015 RMK A01 T00161067  RH  054%=      5-min Rain = 0
KME1 131341Z 19010KT 02/M07 A3015 RMK A01 T00171067  RH  054%=      5-min Rain = 0
KME1 131342Z 20014KT 02/M07 A3015 RMK A01 T00171067  RH  054%=      5-min Rain = 0
KME1 131343Z 20013KT 02/M07 A3015 RMK A01 T00171068  RH  053%=      5-min Rain = 0
KME1 131344Z 20011G17KT 02/M07 A3015 RMK A01 T00181067  RH  053%=      5-min Rain = 0
KME1 131345Z 20010KT 02/M07 A3015 RMK A01 T00181067  RH  053%=      5-min Rain = 0
KME1 131346Z 20011KT 02/M07 A3015 RMK A01 T00181067  RH  053%=      5-min Rain = 0
KME1 131347Z 21010KT 02/M07 A3015 RMK A01 T00181067  RH  053%=      5-min Rain = 0
KME1 131348Z 20010KT 02/M07 A3015 RMK A01 T00181067  RH  053%=      5-min Rain = 0
KME1 131349Z 20010KT 02/M07 A3015 RMK A01 T00191067  RH  053%=      5-min Rain = 0
KME1 131350Z 20011KT 02/M07 A3015 RMK A01 T00191067  RH  053%=      5-min Rain = 0
KME1 131351Z 20010KT 02/M07 A3015 RMK A01 T00191067  RH  053%=      5-min Rain = 0
KME1 131352Z 20010G16KT 02/M07 A3015 RMK A01 T00201067  RH  053%=      5-min Rain = 0
KME1 131353Z 20009G14KT 02/M07 A3015 RMK A01 T00201067  RH  052%=      5-min Rain = 0
KME1 131354Z 20008KT 02/M07 A3015 RMK A01 T00201067  RH  053%=      5-min Rain = 0
KME1 131355Z 20010KT 02/M07 A3015 RMK A01 T00201067  RH  053%=      5-min Rain = 0
KME1 131356Z 20009KT 02/M07 A3015 RMK A01 T00201067  RH  052%=      5-min Rain = 0
KME1 131357Z 19010KT 02/M07 A3015 RMK A01 T00211066  RH  053%=      5-min Rain = 0
KME1 131358Z 20009KT 02/M07 A3015 RMK A01 T00211066  RH  052%=      5-min Rain = 0
KME1 131359Z 20011G16KT 02/M07 A3015 RMK A01 T00211067  RH  052%=      5-min Rain = 0
KME1 131400Z 19011G16KT 02/M07 A3015 RMK A01 T00221067  RH  052%=      5-min Rain = 0
KME1 131401Z 20010KT 02/M07 A3015 RMK A01 T00221067  RH  052%=      5-min Rain = 0
KME1 131402Z 20012KT 02/M07 A3015 RMK A01 T00221067  RH  052%=      5-min Rain = 0
KME1 131403Z 20010KT 02/M07 A3015 RMK A01 T00221067  RH  052%=      5-min Rain = 0
KME1 131404Z 20009KT 02/M07 A3015 RMK A01 T00231066  RH  052%=      5-min Rain = 0
KME1 131405Z 19010KT 02/M07 A3015 RMK A01 T00231066  RH  052%=      5-min Rain = 0
KME1 131406Z 20010KT 02/M07 A3015 RMK A01 T00231067  RH  051%=      5-min Rain = 0
KME1 131407Z 20008KT 02/M07 A3015 RMK A01 T00231066  RH  052%=      5-min Rain = 0
KME1 131408Z 19015KT 02/M07 A3015 RMK A01 T00231066  RH  052%=      5-min Rain = 0
KME1 131409Z 19012KT 02/M07 A3015 RMK A01 T00241067  RH  051%=      5-min Rain = 0
KME1 131410Z 19010KT 02/M07 A3015 RMK A01 T00241067  RH  051%=      5-min Rain = 0
KME1 131411Z 20010KT 02/M07 A3015 RMK A01 T00241067  RH  051%=      5-min Rain = 0
KME1 131412Z 20009KT 03/M07 A3015 RMK A01 T00251066  RH  051%=      5-min Rain = 0
KME1 131413Z 20010KT 03/M07 A3015 RMK A01 T00251066  RH  051%=      5-min Rain = 0
KME1 131414Z 20011G18KT 03/M07 A3015 RMK A01 T00251066  RH  051%=      5-min Rain = 0
KME1 131415Z 20011KT 03/M07 A3015 RMK A01 T00251066  RH  051%=      5-min Rain = 0
KME1 131416Z 20011KT 03/M07 A3015 RMK A01 T00251065  RH  051%=      5-min Rain = 0
KME1 131417Z 20013KT 03/M07 A3015 RMK A01 T00261065  RH  051%=      5-min Rain = 0
KME1 131418Z 21012KT 03/M07 A3015 RMK A01 T00261066  RH  051%=      5-min Rain = 0
KME1 131419Z 20008G14KT 03/M07 A3015 RMK A01 T00251066  RH  051%=      5-min Rain = 0
KME1 131420Z 20009G15KT 03/M07 A3015 RMK A01 T00261065  RH  051%=      5-min Rain = 0
KME1 131421Z 19009KT 03/M07 A3015 RMK A01 T00261065  RH  051%=      5-min Rain = 0
KME1 131422Z 19014KT 03/M07 A3015 RMK A01 T00261065  RH  051%=      5-min Rain = 0
KME1 131423Z 19012KT 03/M07 A3015 RMK A01 T00261066  RH  051%=      5-min Rain = 0
KME1 131424Z 19012KT 03/M07 A3015 RMK A01 T00261065  RH  051%=      5-min Rain = 0
KME1 131425Z 19012G17KT 03/M07 A3015 RMK A01 T00271065  RH  051%=      5-min Rain = 0
KME1 131426Z 19010KT 03/M07 A3015 RMK A01 T00271066  RH  051%=      5-min Rain = 0
KME1 131427Z 18010KT 03/M07 A3015 RMK A01 T00271066  RH  051%=      5-min Rain = 0
KME1 131428Z 20013KT 03/M07 A3015 RMK A01 T00271065  RH  051%=      5-min Rain = 0
KME1 131429Z 19013KT 03/M07 A3015 RMK A01 T00271066  RH  050%=      5-min Rain = 0
KME1 131430Z 19012G19KT 03/M07 A3016 RMK A01 T00271067  RH  050%=      5-min Rain = 0
KME1 131431Z 19012G17KT 03/M07 A3016 RMK A01 T00281066  RH  050%=      5-min Rain = 0
KME1 131432Z 20012KT 03/M07 A3016 RMK A01 T00281066  RH  050%=      5-min Rain = 0
KME1 131433Z 19009KT 03/M07 A3016 RMK A01 T00281066  RH  050%=      5-min Rain = 0
KME1 131434Z 19011KT 03/M07 A3016 RMK A01 T00281065  RH  050%=      5-min Rain = 0
KME1 131435Z 20012KT 03/M06 A3016 RMK A01 T00291064  RH  050%=      5-min Rain = 0
KME1 131436Z 20012KT 03/M06 A3016 RMK A01 T00291064  RH  050%=      5-min Rain = 0
KME1 131437Z 19012KT 03/M07 A3016 RMK A01 T00291065  RH  050%=      5-min Rain = 0
KME1 131438Z 19009KT 03/M07 A3016 RMK A01 T00291065  RH  050%=      5-min Rain = 0
KME1 131439Z 19012KT 03/M06 A3016 RMK A01 T00301064  RH  050%=      5-min Rain = 0
KME1 131440Z 20010KT 03/M06 A3016 RMK A01 T00301063  RH  050%=      5-min Rain = 0
KME1 131441Z 19011G17KT 03/M06 A3016 RMK A01 T00301063  RH  050%=      5-min Rain = 0
KME1 131442Z 19015G20KT 03/M06 A3016 RMK A01 T00311064  RH  050%=      5-min Rain = 0
KME1 131443Z 20013KT 03/M07 A3016 RMK A01 T00311065  RH  049%=      5-min Rain = 0
KME1 131444Z 20014G19KT 03/M07 A3016 RMK A01 T00311065  RH  049%=      5-min Rain = 0
KME1 131445Z 19015KT 03/M07 A3016 RMK A01 T00321065  RH  049%=      5-min Rain = 0
KME1 131446Z 19016KT 03/M07 A3016 RMK A01 T00311066  RH  049%=      5-min Rain = 0
KME1 131447Z 19013KT 03/M07 A3016 RMK A01 T00321066  RH  049%=      5-min Rain = 0
KME1 131448Z 20015G21KT 03/M07 A3016 RMK A01 T00321065  RH  049%=      5-min Rain = 0
KME1 131449Z 20016KT 03/M07 A3016 RMK A01 T00321066  RH  048%=      5-min Rain = 0
KME1 131450Z 19010KT 03/M07 A3016 RMK A01 T00321066  RH  048%=      5-min Rain = 0
KME1 131451Z 19014KT 03/M07 A3016 RMK A01 T00331065  RH  049%=      5-min Rain = 0
KME1 131452Z 19015KT 03/M07 A3016 RMK A01 T00331065  RH  048%=      5-min Rain = 0
KME1 131453Z 19015KT 03/M07 A3016 RMK A01 T00331066  RH  048%=      5-min Rain = 0
KME1 131454Z 19014KT 03/M07 A3016 RMK A01 T00341066  RH  048%=      5-min Rain = 0
KME1 131455Z 19010KT 03/M07 A3015 RMK A01 T00341065  RH  048%=      5-min Rain = 0
KME1 131456Z 18011G16KT 03/M07 A3015 RMK A01 T00341065  RH  048%=      5-min Rain = 0
KME1 131457Z 19012KT 03/M07 A3015 RMK A01 T00341065  RH  048%=      5-min Rain = 0
KME1 131458Z 19014KT 03/M07 A3015 RMK A01 T00341065  RH  048%=      5-min Rain = 0
KME1 131459Z 18016KT 04/M07 A3015 RMK A01 T00351066  RH  048%=      5-min Rain = 0
KME1 131500Z 18016KT 04/M07 A3015 RMK A01 T00351066  RH  047%=      5-min Rain = 0
KME1 131501Z 19014G19KT 04/M07 A3015 RMK A01 T00351066  RH  047%=      5-min Rain = 0
KME1 131502Z 19011KT 04/M07 A3015 RMK A01 T00351066  RH  048%=      5-min Rain = 0
KME1 131503Z 18012G17KT 04/M07 A3014 RMK A01 T00361065  RH  048%=      5-min Rain = 0
KME1 131504Z 18014KT 04/M07 A3014 RMK A01 T00361065  RH  048%=      5-min Rain = 0
KME1 131505Z 19014KT 04/M07 A3014 RMK A01 T00361066  RH  047%=      5-min Rain = 0
KME1 131506Z 19014G19KT 04/M07 A3014 RMK A01 T00361067  RH  047%=      5-min Rain = 0
KME1 131507Z 18014KT 04/M07 A3014 RMK A01 T00361067  RH  047%=      5-min Rain = 0
KME1 131508Z 19015KT 04/M07 A3015 RMK A01 T00361067  RH  047%=      5-min Rain = 0
KME1 131509Z 19017G22KT 04/M07 A3015 RMK A01 T00371067  RH  047%=      5-min Rain = 0
KME1 131510Z 19019G24KT 04/M07 A3015 RMK A01 T00371068  RH  046%=      5-min Rain = 0
KME1 131511Z 19014KT 04/M07 A3015 RMK A01 T00371069  RH  046%=      5-min Rain = 0
KME1 131512Z 19015G20KT 04/M07 A3015 RMK A01 T00371069  RH  046%=      5-min Rain = 0
KME1 131513Z 19015G21KT 04/M07 A3015 RMK A01 T00371068  RH  046%=      5-min Rain = 0
KME1 131514Z 19016G21KT 04/M07 A3015 RMK A01 T00381068  RH  046%=      5-min Rain = 0
KME1 131515Z 18016G21KT 04/M07 A3015 RMK A01 T00381069  RH  046%=      5-min Rain = 0
KME1 131516Z 19013G20KT 04/M07 A3015 RMK A01 T00381069  RH  045%=      5-min Rain = 0
KME1 131517Z 19016G21KT 04/M07 A3015 RMK A01 T00391068  RH  046%=      5-min Rain = 0
KME1 131518Z 19012G20KT 04/M07 A3015 RMK A01 T00391068  RH  046%=      5-min Rain = 0
KME1 131519Z 19013G18KT 04/M07 A3015 RMK A01 T00391067  RH  046%=      5-min Rain = 0
KME1 131520Z 19014G19KT 04/M07 A3015 RMK A01 T00391067  RH  046%=      5-min Rain = 0
KME1 131521Z 19013KT 04/M07 A3016 RMK A01 T00391067  RH  046%=      5-min Rain = 0
KME1 131522Z 19012G17KT 04/M07 A3015 RMK A01 T00391066  RH  046%=      5-min Rain = 0
KME1 131523Z 19012KT 04/M07 A3015 RMK A01 T00401066  RH  046%=      5-min Rain = 0
KME1 131524Z 20012KT 04/M07 A3015 RMK A01 T00411065  RH  046%=      5-min Rain = 0
KME1 131525Z 20013G18KT 04/M07 A3015 RMK A01 T00411065  RH  046%=      5-min Rain = 0
KME1 131526Z 20017KT 04/M07 A3015 RMK A01 T00411066  RH  046%=      5-min Rain = 0
KME1 131527Z 19015G20KT 04/M07 A3015 RMK A01 T00411066  RH  045%=      5-min Rain = 0
KME1 131528Z 19011G17KT 04/M07 A3015 RMK A01 T00411066  RH  046%=      5-min Rain = 0
KME1 131529Z 19013KT 04/M07 A3015 RMK A01 T00411065  RH  046%=      5-min Rain = 0
KME1 131530Z 19014G19KT 04/M07 A3015 RMK A01 T00421065  RH  046%=      5-min Rain = 0
KME1 131531Z 19013KT 04/M06 A3016 RMK A01 T00421064  RH  046%=      5-min Rain = 0
KME1 131532Z 20012KT 04/M06 A3016 RMK A01 T00431064  RH  046%=      5-min Rain = 0
KME1 131533Z 20013KT 04/M06 A3016 RMK A01 T00431064  RH  046%=      5-min Rain = 0
KME1 131534Z 20013KT 04/M06 A3016 RMK A01 T00431063  RH  046%=      5-min Rain = 0
KME1 131535Z 19014KT 04/M06 A3016 RMK A01 T00441064  RH  046%=      5-min Rain = 0
KME1 131536Z 19011KT 04/M06 A3016 RMK A01 T00441064  RH  045%=      5-min Rain = 0
KME1 131537Z 19010KT 04/M06 A3016 RMK A01 T00441063  RH  045%=      5-min Rain = 0
KME1 131538Z 20012G17KT 05/M06 A3016 RMK A01 T00451062  RH  046%=      5-min Rain = 0
KME1 131539Z 19011KT 05/M06 A3016 RMK A01 T00461062  RH  045%=      5-min Rain = 0
KME1 131540Z 18015KT 05/M06 A3016 RMK A01 T00461062  RH  045%=      5-min Rain = 0
KME1 131541Z 19013KT 05/M06 A3016 RMK A01 T00461063  RH  045%=      5-min Rain = 0
KME1 131542Z 19013G20KT 05/M06 A3015 RMK A01 T00471063  RH  045%=      5-min Rain = 0
KME1 131543Z 19014G20KT 05/M06 A3015 RMK A01 T00481063  RH  045%=      5-min Rain = 0
KME1 131544Z 19014G19KT 05/M06 A3015 RMK A01 T00491062  RH  044%=      5-min Rain = 0
KME1 131545Z 20012G17KT 05/M06 A3015 RMK A01 T00501062  RH  044%=      5-min Rain = 0
KME1 131546Z 20017KT 05/M06 A3015 RMK A01 T00521062  RH  044%=      5-min Rain = 0
KME1 131547Z 19013KT 05/M06 A3015 RMK A01 T00521063  RH  043%=      5-min Rain = 0
KME1 131548Z 20015KT 05/M06 A3015 RMK A01 T00521063  RH  043%=      5-min Rain = 0
KME1 131549Z 20013KT 05/M06 A3015 RMK A01 T00521064  RH  043%=      5-min Rain = 0
KME1 131550Z 19014G19KT 05/M06 A3015 RMK A01 T00521064  RH  043%=      5-min Rain = 0
KME1 131551Z 20017G22KT 05/M06 A3015 RMK A01 T00521064  RH  043%=      5-min Rain = 0
KME1 131552Z 20013KT 05/M07 A3015 RMK A01 T00511065  RH  043%=      5-min Rain = 0
KME1 131553Z 20015KT 05/M06 A3015 RMK A01 T00521064  RH  043%=      5-min Rain = 0
KME1 131554Z 20016G22KT 05/M06 A3015 RMK A01 T00531064  RH  043%=      5-min Rain = 0
KME1 131555Z 19018G23KT 05/M06 A3015 RMK A01 T00531064  RH  043%=      5-min Rain = 0
KME1 131556Z 19017KT 05/M07 A3015 RMK A01 T00511065  RH  043%=      5-min Rain = 0
KME1 131557Z 20016KT 05/M07 A3015 RMK A01 T00501065  RH  043%=      5-min Rain = 0
KME1 131558Z 20017G22KT 05/M06 A3015 RMK A01 T00501064  RH  043%=      5-min Rain = 0
KME1 131559Z 20016KT 05/M07 A3014 RMK A01 T00491065  RH  043%=      5-min Rain = 0
KME1 131600Z 19015KT 05/M06 A3014 RMK A01 T00491064  RH  044%=      5-min Rain = 0
KME1 131601Z 19015KT 05/M06 A3014 RMK A01 T00501063  RH  044%=      5-min Rain = 0
KME1 131602Z 19016G21KT 05/M06 A3014 RMK A01 T00501063  RH  044%=      5-min Rain = 0
KME1 131603Z 20017KT 05/M06 A3014 RMK A01 T00511063  RH  044%=      5-min Rain = 0
KME1 131604Z 19012KT 05/M06 A3014 RMK A01 T00511063  RH  044%=      5-min Rain = 0
KME1 131605Z 19016KT 05/M06 A3014 RMK A01 T00511063  RH  044%=      5-min Rain = 0
KME1 131606Z 19016G21KT 05/M06 A3014 RMK A01 T00511063  RH  044%=      5-min Rain = 0
KME1 131607Z 19015KT 05/M06 A3014 RMK A01 T00511063  RH  044%=      5-min Rain = 0
KME1 131608Z 19014G19KT 05/M06 A3014 RMK A01 T00511062  RH  044%=      5-min Rain = 0
KME1 131609Z 19018KT 05/M06 A3014 RMK A01 T00511062  RH  044%=      5-min Rain = 0
KME1 131610Z 19016KT 05/M06 A3014 RMK A01 T00511061  RH  044%=      5-min Rain = 0
KME1 131611Z 19016G22KT 05/M06 A3014 RMK A01 T00511061  RH  044%=      5-min Rain = 0
KME1 131612Z 19017G22KT 05/M06 A3014 RMK A01 T00511061  RH  044%=      5-min Rain = 0
KME1 131613Z 19013G19KT 05/M06 A3014 RMK A01 T00511060  RH  044%=      5-min Rain = 0
KME1 131614Z 20015KT 05/M06 A3014 RMK A01 T00511059  RH  045%=      5-min Rain = 0
KME1 131615Z 20012G17KT 05/M06 A3014 RMK A01 T00521058  RH  045%=      5-min Rain = 0
KME1 131616Z 19015KT 05/M06 A3014 RMK A01 T00531057  RH  045%=      5-min Rain = 0
KME1 131617Z 20013KT 05/M06 A3014 RMK A01 T00541057  RH  045%=      5-min Rain = 0
KME1 131618Z 19013G20KT 05/M06 A3014 RMK A01 T00531057  RH  045%=      5-min Rain = 0
KME1 131619Z 20018KT 05/M06 A3014 RMK A01 T00541056  RH  045%=      5-min Rain = 0
KME1 131620Z 20012G17KT 05/M06 A3014 RMK A01 T00541056  RH  045%=      5-min Rain = 0
KME1 131621Z 20018G24KT 05/M06 A3014 RMK A01 T00541055  RH  045%=      5-min Rain = 0
KME1 131622Z 20016G21KT 05/M06 A3014 RMK A01 T00541056  RH  045%=      5-min Rain = 0
KME1 131623Z 20014KT 05/M06 A3014 RMK A01 T00531055  RH  046%=      5-min Rain = 0
KME1 131624Z 20015G21KT 05/M05 A3014 RMK A01 T00531054  RH  046%=      5-min Rain = 0
KME1 131625Z 19017G24KT 05/M05 A3014 RMK A01 T00541053  RH  046%=      5-min Rain = 0
KME1 131626Z 19017KT 05/M05 A3014 RMK A01 T00541052  RH  046%=      5-min Rain = 0
KME1 131627Z 18017KT 05/M05 A3014 RMK A01 T00541051  RH  047%=      5-min Rain = 0
KME1 131628Z 19017KT 05/M05 A3014 RMK A01 T00541051  RH  047%=      5-min Rain = 0
KME1 131629Z 19015KT 05/M05 A3014 RMK A01 T00541050  RH  047%=      5-min Rain = 0
KME1 131630Z 19014KT 06/M05 A3013 RMK A01 T00551049  RH  047%=      5-min Rain = 0
KME1 131631Z 19016G24KT 06/M05 A3013 RMK A01 T00551048  RH  047%=      5-min Rain = 0
KME1 131632Z 19017KT 06/M05 A3014 RMK A01 T00551048  RH  047%=      5-min Rain = 0
KME1 131633Z 20016G21KT 06/M05 A3014 RMK A01 T00561048  RH  047%=      5-min Rain = 0
KME1 131634Z 20012G17KT 06/M05 A3014 RMK A01 T00551048  RH  047%=      5-min Rain = 0
KME1 131635Z 20014KT 06/M05 A3014 RMK A01 T00561046  RH  048%=      5-min Rain = 0
KME1 131636Z 20015KT 06/M05 A3013 RMK A01 T00571046  RH  048%=      5-min Rain = 0
KME1 131637Z 19016KT 06/M05 A3013 RMK A01 T00571046  RH  047%=      5-min Rain = 0
KME1 131638Z 19016KT 06/M05 A3013 RMK A01 T00561047  RH  047%=      5-min Rain = 0
KME1 131639Z 20015G20KT 06/M05 A3013 RMK A01 T00551047  RH  048%=      5-min Rain = 0
KME1 131640Z 19017KT 06/M05 A3013 RMK A01 T00551047  RH  048%=      5-min Rain = 0
KME1 131641Z 19016KT 06/M05 A3013 RMK A01 T00551047  RH  048%=      5-min Rain = 0
KME1 131642Z 18015G20KT 06/M05 A3013 RMK A01 T00561046  RH  048%=      5-min Rain = 0
KME1 131643Z 19014G20KT 06/M05 A3013 RMK A01 T00561045  RH  048%=      5-min Rain = 0
KME1 131644Z 19015G20KT 06/M05 A3013 RMK A01 T00561046  RH  048%=      5-min Rain = 0
KME1 131645Z 19013KT 06/M05 A3013 RMK A01 T00561045  RH  048%=      5-min Rain = 0
KME1 131646Z 19014KT 06/M04 A3013 RMK A01 T00571044  RH  048%=      5-min Rain = 0
KME1 131647Z 18013G18KT 06/M04 A3013 RMK A01 T00571044  RH  048%=      5-min Rain = 0
KME1 131648Z 19013G18KT 06/M04 A3013 RMK A01 T00571042  RH  049%=      5-min Rain = 0
KME1 131649Z 20011G16KT 06/M04 A3013 RMK A01 T00581042  RH  049%=      5-min Rain = 0
KME1 131650Z 20013KT 06/M04 A3013 RMK A01 T00591041  RH  049%=      5-min Rain = 0
KME1 131651Z 20015G24KT 06/M04 A3013 RMK A01 T00591041  RH  049%=      5-min Rain = 0
KME1 131652Z 20015KT 06/M04 A3013 RMK A01 T00581041  RH  049%=      5-min Rain = 0
KME1 131653Z 20017G22KT 06/M04 A3013 RMK A01 T00571041  RH  049%=      5-min Rain = 0
KME1 131654Z 20017G22KT 06/M04 A3013 RMK A01 T00561042  RH  049%=      5-min Rain = 0
KME1 131655Z 21017KT 06/M04 A3013 RMK A01 T00561042  RH  049%=      5-min Rain = 0
KME1 131656Z 20015G20KT 06/M04 A3013 RMK A01 T00551041  RH  050%=      5-min Rain = 0
KME1 131657Z 21015KT 06/M04 A3013 RMK A01 T00551040  RH  050%=      5-min Rain = 0
KME1 131658Z 20015KT 06/M04 A3012 RMK A01 T00561040  RH  050%=      5-min Rain = 0
KME1 131659Z 19013G18KT 06/M04 A3013 RMK A01 T00561039  RH  050%=      5-min Rain = 0
KME1 131700Z 20017KT 06/M04 A3013 RMK A01 T00571039  RH  050%=      5-min Rain = 0
KME1 131701Z 19013KT 06/M04 A3013 RMK A01 T00561041  RH  050%=      5-min Rain = 0
KME1 131702Z 19013G18KT 06/M04 A3013 RMK A01 T00561040  RH  050%=      5-min Rain = 0
KME1 131703Z 19013KT 06/M04 A3013 RMK A01 T00561040  RH  050%=      5-min Rain = 0
KME1 131704Z 19014G19KT 06/M04 A3013 RMK A01 T00561040  RH  050%=      5-min Rain = 0
KME1 131705Z 19013G20KT 06/M04 A3013 RMK A01 T00561040  RH  050%=      5-min Rain = 0
KME1 131706Z 19011G17KT 06/M04 A3012 RMK A01 T00561040  RH  050%=      5-min Rain = 0
KME1 131707Z 19013KT 06/M04 A3012 RMK A01 T00561040  RH  050%=      5-min Rain = 0
KME1 131708Z 19013G18KT 06/M04 A3012 RMK A01 T00561040  RH  050%=      5-min Rain = 0
KME1 131709Z 18015KT 06/M04 A3012 RMK A01 T00561041  RH  050%=      5-min Rain = 0
KME1 131710Z 19014KT 06/M04 A3012 RMK A01 T00551042  RH  050%=      5-min Rain = 0
KME1 131711Z 19012KT 05/M04 A3012 RMK A01 T00541042  RH  050%=      5-min Rain = 0
KME1 131712Z 20011KT 05/M04 A3013 RMK A01 T00531041  RH  050%=      5-min Rain = 0
KME1 131713Z 19011KT 05/M04 A3013 RMK A01 T00541040  RH  051%=      5-min Rain = 0
KME1 131714Z 20011KT 06/M04 A3013 RMK A01 T00551040  RH  051%=      5-min Rain = 0
KME1 131715Z 20015KT 06/M04 A3013 RMK A01 T00551040  RH  050%=      5-min Rain = 0
KME1 131716Z 20012KT 06/M04 A3013 RMK A01 T00551040  RH  050%=      5-min Rain = 0
KME1 131717Z 19009KT 06/M04 A3013 RMK A01 T00551039  RH  051%=      5-min Rain = 0
KME1 131718Z 20015KT 06/M04 A3013 RMK A01 T00551040  RH  051%=      5-min Rain = 0
KME1 131719Z 19013G19KT 06/M04 A3013 RMK A01 T00551040  RH  050%=      5-min Rain = 0
KME1 131720Z 20013KT 06/M04 A3013 RMK A01 T00551040  RH  050%=      5-min Rain = 0
KME1 131721Z 19013KT 05/M04 A3013 RMK A01 T00541040  RH  050%=      5-min Rain = 0
KME1 131722Z 19010KT 05/M04 A3013 RMK A01 T00541040  RH  051%=      5-min Rain = 0
KME1 131723Z 20011G16KT 05/M04 A3013 RMK A01 T00541040  RH  051%=      5-min Rain = 0
KME1 131724Z 20013KT 05/M04 A3013 RMK A01 T00541040  RH  051%=      5-min Rain = 0
KME1 131725Z 20009KT 06/M04 A3013 RMK A01 T00551039  RH  051%=      5-min Rain = 0
KME1 131726Z 20012G18KT 05/M04 A3013 RMK A01 T00541039  RH  051%=      5-min Rain = 0
KME1 131727Z 19011KT 05/M04 A3013 RMK A01 T00541038  RH  051%=      5-min Rain = 0
KME1 131728Z 21015KT 05/M04 A3013 RMK A01 T00541038  RH  051%=      5-min Rain = 0
KME1 131729Z 20016KT 05/M04 A3013 RMK A01 T00541038  RH  051%=      5-min Rain = 0
KME1 131730Z 20014KT 05/M04 A3013 RMK A01 T00541038  RH  052%=      5-min Rain = 0
KME1 131731Z 19011G16KT 05/M04 A3013 RMK A01 T00541038  RH  052%=      5-min Rain = 0
KME1 131732Z 19012KT 05/M04 A3013 RMK A01 T00541037  RH  052%=      5-min Rain = 0
KME1 131733Z 20010KT 06/M04 A3013 RMK A01 T00551036  RH  052%=      5-min Rain = 0
KME1 131734Z 20010G17KT 06/M04 A3013 RMK A01 T00561035  RH  052%=      5-min Rain = 0
KME1 131735Z 19011G16KT 06/M04 A3013 RMK A01 T00571036  RH  051%=      5-min Rain = 0
KME1 131736Z 20012G17KT 06/M04 A3013 RMK A01 T00571036  RH  051%=      5-min Rain = 0
KME1 131737Z 19009KT 06/M04 A3013 RMK A01 T00561036  RH  051%=      5-min Rain = 0
KME1 131738Z 20011KT 06/M04 A3013 RMK A01 T00561036  RH  052%=      5-min Rain = 0
KME1 131739Z 20014KT 06/M04 A3013 RMK A01 T00561036  RH  051%=      5-min Rain = 0
KME1 131740Z 20013KT 06/M04 A3013 RMK A01 T00561037  RH  051%=      5-min Rain = 0
KME1 131741Z 21013KT 06/M04 A3013 RMK A01 T00551037  RH  051%=      5-min Rain = 0
KME1 131742Z 19012KT 06/M04 A3013 RMK A01 T00551037  RH  052%=      5-min Rain = 0
KME1 131743Z 20008KT 06/M04 A3013 RMK A01 T00551036  RH  052%=      5-min Rain = 0
KME1 131744Z 19010G16KT 06/M04 A3013 RMK A01 T00561035  RH  052%=      5-min Rain = 0
KME1 131745Z 20010KT 06/M04 A3013 RMK A01 T00571035  RH  052%=      5-min Rain = 0
KME1 131746Z 20014KT 06/M04 A3013 RMK A01 T00581035  RH  051%=      5-min Rain = 0
KME1 131747Z 20010KT 06/M04 A3013 RMK A01 T00571036  RH  051%=      5-min Rain = 0
KME1 131748Z 20015G23KT 06/M04 A3013 RMK A01 T00571035  RH  052%=      5-min Rain = 0
KME1 131749Z 19015KT 06/M04 A3013 RMK A01 T00561036  RH  051%=      5-min Rain = 0
KME1 131750Z 20014KT 06/M04 A3012 RMK A01 T00551036  RH  052%=      5-min Rain = 0
KME1 131751Z 20011KT 05/M04 A3012 RMK A01 T00541036  RH  052%=      5-min Rain = 0
KME1 131752Z 20015KT 05/M04 A3012 RMK A01 T00541036  RH  052%=      5-min Rain = 0
KME1 131753Z 20013KT 05/M04 A3012 RMK A01 T00541036  RH  052%=      5-min Rain = 0
KME1 131754Z 19014G19KT 05/M04 A3012 RMK A01 T00541035  RH  053%=      5-min Rain = 0
KME1 131755Z 20013G19KT 05/M04 A3012 RMK A01 T00541035  RH  053%=      5-min Rain = 0
KME1 131756Z 19013KT 05/M04 A3012 RMK A01 T00541035  RH  053%=      5-min Rain = 0
KME1 131757Z 19013G18KT 05/M04 A3012 RMK A01 T00541035  RH  053%=      5-min Rain = 0
KME1 131758Z 19012KT 06/M03 A3012 RMK A01 T00561033  RH  053%=      5-min Rain = 0
KME1 131759Z 20012KT 06/M03 A3012 RMK A01 T00561033  RH  053%=      5-min Rain = 0
KME1 131800Z 20015KT 06/M03 A3012 RMK A01 T00571032  RH  053%=      5-min Rain = 0
KME1 131801Z 20013KT 06/M03 A3012 RMK A01 T00571033  RH  052%=      5-min Rain = 0
KME1 131802Z 20015KT 06/M03 A3012 RMK A01 T00561033  RH  053%=      5-min Rain = 0
KME1 131803Z 20013KT 06/M03 A3012 RMK A01 T00561033  RH  053%=      5-min Rain = 0
KME1 131804Z 20012KT 06/M03 A3012 RMK A01 T00561033  RH  053%=      5-min Rain = 0
KME1 131805Z 19008KT 06/M03 A3012 RMK A01 T00571032  RH  053%=      5-min Rain = 0
KME1 131806Z 19012KT 06/M03 A3012 RMK A01 T00591031  RH  053%=      5-min Rain = 0
KME1 131807Z 18012KT 06/M03 A3012 RMK A01 T00601031  RH  052%=      5-min Rain = 0
KME1 131808Z 19013KT 06/M03 A3012 RMK A01 T00591032  RH  052%=      5-min Rain = 0
KME1 131809Z 19010G17KT 06/M03 A3012 RMK A01 T00581033  RH  052%=      5-min Rain = 0
KME1 131810Z 19011G16KT 06/M03 A3012 RMK A01 T00581032  RH  052%=      5-min Rain = 0
KME1 131811Z 19010KT 06/M03 A3012 RMK A01 T00591032  RH  052%=      5-min Rain = 0
KME1 131812Z 18010KT 06/M03 A3012 RMK A01 T00591031  RH  052%=      5-min Rain = 0
KME1 131813Z 19012KT 06/M03 A3012 RMK A01 T00601030  RH  052%=      5-min Rain = 0
KME1 131814Z 19010KT 06/M03 A3012 RMK A01 T00611030  RH  052%=      5-min Rain = 0
KME1 131815Z 19010G17KT 06/M03 A3012 RMK A01 T00611030  RH  052%=      5-min Rain = 0
KME1 131816Z 20012G17KT 06/M03 A3011 RMK A01 T00611030  RH  052%=      5-min Rain = 0
KME1 131817Z 20010KT 06/M03 A3011 RMK A01 T00611029  RH  052%=      5-min Rain = 0
KME1 131818Z 20011KT 06/M03 A3011 RMK A01 T00611029  RH  052%=      5-min Rain = 0
KME1 131819Z 20010G15KT 06/M03 A3011 RMK A01 T00611029  RH  052%=      5-min Rain = 0
KME1 131820Z 19010KT 06/M03 A3011 RMK A01 T00621027  RH  053%=      5-min Rain = 0
KME1 131821Z 19011KT 06/M03 A3011 RMK A01 T00631029  RH  052%=      5-min Rain = 0
KME1 131822Z 19010KT 06/M03 A301 RMK A01 T00621029  RH  052%=      5-min Rain = 0
KME1 131823Z 20007KT 06/M03 A301 RMK A01 T00641027  RH  052%=      5-min Rain = 0
KME1 131824Z 21012KT 07/M03 A301 RMK A01 T00651026  RH  052%=      5-min Rain = 0
KME1 131825Z 21011G19KT 07/M03 A301 RMK A01 T00661026  RH  052%=      5-min Rain = 0
KME1 131826Z 20012KT 07/M03 A301 RMK A01 T00661025  RH  052%=      5-min Rain = 0
KME1 131827Z 20010KT 07/M03 A301 RMK A01 T00661025  RH  052%=      5-min Rain = 0
KME1 131828Z 21010G15KT 07/M03 A301 RMK A01 T00651026  RH  052%=      5-min Rain = 0
KME1 131829Z 20014KT 07/M03 A301 RMK A01 T00661025  RH  052%=      5-min Rain = 0
KME1 131830Z 20010G15KT 07/M03 A301 RMK A01 T00661026  RH  052%=      5-min Rain = 0
KME1 131831Z 20013KT 07/M03 A301 RMK A01 T00661026  RH  052%=      5-min Rain = 0
KME1 131832Z 20011KT 07/M03 A301 RMK A01 T00661027  RH  052%=      5-min Rain = 0
KME1 131833Z 19013KT 07/M03 A301 RMK A01 T00651027  RH  052%=      5-min Rain = 0
KME1 131834Z 20010G15KT 06/M03 A301 RMK A01 T00641028  RH  052%=      5-min Rain = 0
KME1 131835Z 20011KT 06/M03 A301 RMK A01 T00641027  RH  052%=      5-min Rain = 0
KME1 131836Z 20011KT 07/M03 A301 RMK A01 T00651026  RH  052%=      5-min Rain = 0
KME1 131837Z 20013KT 07/M03 A301 RMK A01 T00651027  RH  052%=      5-min Rain = 0
KME1 131838Z 19013KT 06/M03 A301 RMK A01 T00641027  RH  052%=      5-min Rain = 0
KME1 131839Z 20010KT 06/M03 A301 RMK A01 T00631028  RH  052%=      5-min Rain = 0
KME1 131840Z 19010KT 06/M03 A301 RMK A01 T00621027  RH  053%=      5-min Rain = 0
KME1 131841Z 19013KT 06/M03 A301 RMK A01 T00631026  RH  053%=      5-min Rain = 0
KME1 131842Z 19012KT 06/M03 A301 RMK A01 T00641027  RH  052%=      5-min Rain = 0
KME1 131843Z 19012G17KT 06/M03 A301 RMK A01 T00641027  RH  052%=      5-min Rain = 0
KME1 131844Z 19013KT 06/M03 A301 RMK A01 T00631027  RH  053%=      5-min Rain = 0
KME1 131845Z 19013KT 06/M03 A3009 RMK A01 T00631026  RH  053%=      5-min Rain = 0
KME1 131846Z 19011KT 06/M03 A3009 RMK A01 T00631026  RH  053%=      5-min Rain = 0
KME1 131847Z 20008KT 06/M03 A3009 RMK A01 T00641025  RH  053%=      5-min Rain = 0
KME1 131848Z 21009KT 07/M02 A3009 RMK A01 T00651023  RH  053%=      5-min Rain = 0
KME1 131849Z 21011KT 07/M02 A3009 RMK A01 T00671021  RH  053%=      5-min Rain = 0
KME1 131850Z 20006KT 07/M02 A3009 RMK A01 T00681021  RH  053%=      5-min Rain = 0
KME1 131851Z 21009KT 07/M02 A3009 RMK A01 T00691020  RH  053%=      5-min Rain = 0
KME1 131852Z 20011KT 07/M02 A3009 RMK A01 T00711020  RH  052%=      5-min Rain = 0
KME1 131853Z 22011KT 07/M02 A3009 RMK A01 T00721019  RH  052%=      5-min Rain = 0
KME1 131854Z 21013KT 07/M02 A3009 RMK A01 T00721019  RH  052%=      5-min Rain = 0
KME1 131855Z 21013KT 07/M02 A3009 RMK A01 T00711021  RH  052%=      5-min Rain = 0
KME1 131856Z 21014KT 07/M02 A3009 RMK A01 T00701021  RH  052%=      5-min Rain = 0
KME1 131857Z 22016KT 07/M02 A3009 RMK A01 T00691021  RH  053%=      5-min Rain = 0
KME1 131858Z 21016KT 07/M02 A3008 RMK A01 T00691020  RH  053%=      5-min Rain = 0
KME1 131859Z 20014KT 07/M02 A3008 RMK A01 T00691021  RH  053%=      5-min Rain = 0
KME1 131900Z 20012KT 07/M02 A3008 RMK A01 T00691020  RH  053%=      5-min Rain = 0
KME1 131901Z 20014KT 07/M02 A3008 RMK A01 T00711020  RH  052%=      5-min Rain = 0
KME1 131902Z 19014KT 07/M02 A3008 RMK A01 T00711021  RH  052%=      5-min Rain = 0
KME1 131903Z 19014KT 07/M02 A3008 RMK A01 T00711021  RH  052%=      5-min Rain = 0
KME1 131904Z 18012KT 07/M02 A3008 RMK A01 T00701021  RH  052%=      5-min Rain = 0
KME1 131905Z 19015KT 07/M02 A3008 RMK A01 T00711020  RH  052%=      5-min Rain = 0
KME1 131906Z 19015KT 07/M02 A3008 RMK A01 T00701020  RH  053%=      5-min Rain = 0
KME1 131907Z 20011KT 07/M02 A3008 RMK A01 T00691020  RH  053%=      5-min Rain = 0
KME1 131908Z 20016KT 07/M02 A3008 RMK A01 T00701018  RH  054%=      5-min Rain = 0
KME1 131909Z 20012KT 07/M02 A3008 RMK A01 T00701019  RH  053%=      5-min Rain = 0
KME1 131910Z 21015KT 07/M02 A3007 RMK A01 T00691018  RH  054%=      5-min Rain = 0
KME1 131911Z 21013KT 07/M02 A3007 RMK A01 T00681018  RH  054%=      5-min Rain = 0
KME1 131912Z 21013KT 07/M02 A3007 RMK A01 T00691017  RH  054%=      5-min Rain = 0
KME1 131913Z 19009G14KT 07/M02 A3007 RMK A01 T00691017  RH  054%=      5-min Rain = 0
KME1 131914Z 19011KT 07/M02 A3007 RMK A01 T00711016  RH  054%=      5-min Rain = 0
KME1 131915Z 20014KT 07/M02 A3007 RMK A01 T00711016  RH  054%=      5-min Rain = 0
KME1 131916Z 20015KT 07/M02 A3007 RMK A01 T00711017  RH  054%=      5-min Rain = 0
KME1 131917Z 21012KT 07/M02 A3007 RMK A01 T00691017  RH  054%=      5-min Rain = 0
KME1 131918Z 21014KT 07/M02 A3007 RMK A01 T00691016  RH  054%=      5-min Rain = 0
KME1 131919Z 22014KT 07/M02 A3007 RMK A01 T00701016  RH  055%=      5-min Rain = 0
KME1 131920Z 21014KT 07/M02 A3007 RMK A01 T00701015  RH  055%=      5-min Rain = 0
KME1 131921Z 20015KT 07/M02 A3007 RMK A01 T00711015  RH  054%=      5-min Rain = 0
KME1 131922Z 20012G17KT 07/M02 A3007 RMK A01 T00721015  RH  054%=      5-min Rain = 0
KME1 131923Z 21012KT 07/M01 A3006 RMK A01 T00731014  RH  054%=      5-min Rain = 0
KME1 131924Z 22015KT 07/M01 A3006 RMK A01 T00741013  RH  054%=      5-min Rain = 0
KME1 131925Z 21014KT 08/M01 A3006 RMK A01 T00751014  RH  053%=      5-min Rain = 0
KME1 131926Z 21014KT 07/M02 A3006 RMK A01 T00731015  RH  054%=      5-min Rain = 0
KME1 131927Z 20012KT 07/M01 A3006 RMK A01 T00731014  RH  054%=      5-min Rain = 0
KME1 131928Z 21015G20KT 07/M01 A3006 RMK A01 T00731013  RH  054%=      5-min Rain = 0
KME1 131929Z 20016KT 07/M01 A3006 RMK A01 T00741014  RH  054%=      5-min Rain = 0
KME1 131930Z 19014KT 07/M01 A3006 RMK A01 T00731014  RH  054%=      5-min Rain = 0
KME1 131931Z 20013KT 07/M01 A3006 RMK A01 T00731014  RH  054%=      5-min Rain = 0
KME1 131932Z 21014KT 07/M01 A3006 RMK A01 T00741014  RH  054%=      5-min Rain = 0
KME1 131933Z 21015KT 07/M01 A3006 RMK A01 T00731013  RH  054%=      5-min Rain = 0
KME1 131934Z 21013KT 07/M01 A3006 RMK A01 T00731013  RH  054%=      5-min Rain = 0
KME1 131935Z 20013G18KT 07/M01 A3006 RMK A01 T00741012  RH  054%=      5-min Rain = 0
KME1 131936Z 19011KT 08/M01 A3006 RMK A01 T00751011  RH  055%=      5-min Rain = 0
KME1 131937Z 19011G19KT 08/M01 A3006 RMK A01 T00771009  RH  054%=      5-min Rain = 0
KME1 131938Z 20016KT 08/M01 A3005 RMK A01 T00781009  RH  054%=      5-min Rain = 0
KME1 131939Z 19013G18KT 08/M01 A3006 RMK A01 T00791009  RH  054%=      5-min Rain = 0
KME1 131940Z 19011KT 08/M01 A3006 RMK A01 T00781009  RH  054%=      5-min Rain = 0
KME1 131941Z 21011KT 08/M01 A3006 RMK A01 T00771010  RH  054%=      5-min Rain = 0
KME1 131942Z 19012KT 08/M01 A3006 RMK A01 T00771009  RH  055%=      5-min Rain = 0
KME1 131943Z 19013KT 08/M01 A3005 RMK A01 T00771009  RH  054%=      5-min Rain = 0
KME1 131944Z 19012KT 08/M01 A3005 RMK A01 T00761010  RH  055%=      5-min Rain = 0
KME1 131945Z 20010KT 08/M01 A3005 RMK A01 T00751010  RH  055%=      5-min Rain = 0
KME1 131946Z 20012KT 08/M01 A3005 RMK A01 T00761009  RH  055%=      5-min Rain = 0
KME1 131947Z 21009KT 08/M01 A3005 RMK A01 T00751009  RH  055%=      5-min Rain = 0
KME1 131948Z 22008KT 08/M01 A3005 RMK A01 T00761008  RH  055%=      5-min Rain = 0
KME1 131949Z 21011KT 08/M01 A3005 RMK A01 T00771006  RH  055%=      5-min Rain = 0
KME1 131950Z 20007G12KT 08/M01 A3005 RMK A01 T00781007  RH  055%=      5-min Rain = 0
KME1 131951Z 21010KT 08/M01 A3005 RMK A01 T00781007  RH  055%=      5-min Rain = 0
KME1 131952Z 21012KT 08/M01 A3005 RMK A01 T00781007  RH  055%=      5-min Rain = 0
KME1 131953Z 20010KT 08/M01 A3005 RMK A01 T00761008  RH  055%=      5-min Rain = 0
KME1 131954Z 20008KT 08/M01 A3005 RMK A01 T00761007  RH  056%=      5-min Rain = 0
KME1 131955Z 21013KT 08/M01 A3004 RMK A01 T00771006  RH  055%=      5-min Rain = 0
KME1 131956Z 21014KT 08/M01 A3004 RMK A01 T00781008  RH  055%=      5-min Rain = 0
KME1 131957Z 21013KT 08/M01 A3004 RMK A01 T00771008  RH  055%=      5-min Rain = 0
KME1 131958Z 20009KT 08/M01 A3004 RMK A01 T00751009  RH  055%=      5-min Rain = 0
KME1 131959Z 19010KT 08/M01 A3004 RMK A01 T00751008  RH  056%=      5-min Rain = 0
KME1 132000Z 20009KT 08/M01 A3004 RMK A01 T00761007  RH  056%=      5-min Rain = 0
KME1 132001Z 19010KT 08/M01 A3004 RMK A01 T00781005  RH  056%=      5-min Rain = 0
KME1 132002Z 20011KT 08/M00 A3004 RMK A01 T00791004  RH  056%=      5-min Rain = 0
KME1 132003Z 20011KT 08/M00 A3004 RMK A01 T00791004  RH  056%=      5-min Rain = 0
KME1 132004Z 20010KT 08/M00 A3004 RMK A01 T00791003  RH  056%=      5-min Rain = 0
KME1 132005Z 20008KT 08/M00 A3004 RMK A01 T00781003  RH  057%=      5-min Rain = 0
KME1 132006Z 18008KT 08/M00 A3004 RMK A01 T00781003  RH  057%=      5-min Rain = 0
KME1 132007Z 20013KT 08/M00 A3004 RMK A01 T00781003  RH  057%=      5-min Rain = 0
KME1 132008Z 19014KT 08/M00 A3004 RMK A01 T00761004  RH  057%=      5-min Rain = 0
KME1 132009Z 19011G16KT 08/M00 A3004 RMK A01 T00751004  RH  057%=      5-min Rain = 0
KME1 132010Z 20009KT 07/M00 A3004 RMK A01 T00741004  RH  058%=      5-min Rain = 0
KME1 132011Z 19010KT 07/M00 A3004 RMK A01 T00741003  RH  058%=      5-min Rain = 0
KME1 132012Z 19011KT 08/M00 A3004 RMK A01 T00751002  RH  058%=      5-min Rain = 0
KME1 132013Z 19012KT 08/M00 A3004 RMK A01 T00751002  RH  058%=      5-min Rain = 0
KME1 132014Z 20011KT 07/M00 A3003 RMK A01 T00741002  RH  058%=      5-min Rain = 0
KME1 132015Z 20013KT 07/M00 A3003 RMK A01 T00741002  RH  059%=      5-min Rain = 0
KME1 132016Z 19011KT 07/M00 A3003 RMK A01 T00731002  RH  059%=      5-min Rain = 0
KME1 132017Z 20013KT 07/M00 A3003 RMK A01 T00741002  RH  059%=      5-min Rain = 0
KME1 132018Z 20013KT 07/M00 A3003 RMK A01 T00741002  RH  059%=      5-min Rain = 0
KME1 132019Z 19010KT 07/M00 A3003 RMK A01 T00731002  RH  059%=      5-min Rain = 0
KME1 132020Z 20011KT 07/M00 A3003 RMK A01 T00741001  RH  059%=      5-min Rain = 0
KME1 132021Z 19014KT 07/M00 A3003 RMK A01 T00741002  RH  059%=      5-min Rain = 0
KME1 132022Z 19012KT 07/M00 A3003 RMK A01 T00731002  RH  059%=      5-min Rain = 0
KME1 132023Z 19011G16KT 07/M00 A3003 RMK A01 T00731002  RH  059%=      5-min Rain = 0
KME1 132024Z 20013KT 07/M00 A3003 RMK A01 T00731002  RH  059%=      5-min Rain = 0
KME1 132025Z 19011KT 07/M00 A3003 RMK A01 T00731001  RH  059%=      5-min Rain = 0
KME1 132026Z 21010KT 07/M00 A3003 RMK A01 T00731001  RH  059%=      5-min Rain = 0
KME1 132027Z 19014KT 07/00 A3003 RMK A01 T00740000  RH  060%=      5-min Rain = 0
KME1 132028Z 20014KT 07/M00 A3003 RMK A01 T00741001  RH  059%=      5-min Rain = 0
KME1 132029Z 20011KT 07/00 A3003 RMK A01 T007300-0  RH  060%=      5-min Rain = 0
KME1 132030Z 21010KT 07/00 A3003 RMK A01 T00730001  RH  060%=      5-min Rain = 0
KME1 132031Z 21011KT 07/00 A3003 RMK A01 T00730001  RH  060%=      5-min Rain = 0
KME1 132032Z 21009KT 07/00 A3003 RMK A01 T00730001  RH  060%=      5-min Rain = 0
KME1 132033Z 21012KT 07/00 A3003 RMK A01 T00730001  RH  060%=      5-min Rain = 0
KME1 132034Z 20011KT 07/00 A3003 RMK A01 T00730001  RH  060%=      5-min Rain = 0
KME1 132035Z 21011KT 07/00 A3003 RMK A01 T00730001  RH  060%=      5-min Rain = 0
KME1 132036Z 21008KT 07/00 A3003 RMK A01 T00730002  RH  061%=      5-min Rain = 0
KME1 132037Z 21010KT 07/00 A3003 RMK A01 T00740003  RH  061%=      5-min Rain = 0
KME1 132038Z 21011G16KT 07/00 A3003 RMK A01 T00740003  RH  061%=      5-min Rain = 0
KME1 132039Z 20011G16KT 08/00 A3003 RMK A01 T00750003  RH  061%=      5-min Rain = 0
KME1 132040Z 21009KT 07/00 A3003 RMK A01 T00740003  RH  061%=      5-min Rain = 0
KME1 132041Z 20010KT 07/00 A3003 RMK A01 T00740004  RH  061%=      5-min Rain = 0
KME1 132042Z 20009KT 07/00 A3003 RMK A01 T00740004  RH  061%=      5-min Rain = 0
KME1 132043Z 21010KT 07/00 A3003 RMK A01 T00740004  RH  061%=      5-min Rain = 0
KME1 132044Z 20010KT 07/00 A3003 RMK A01 T00740004  RH  061%=      5-min Rain = 0
KME1 132045Z 20009KT 07/00 A3003 RMK A01 T00740004  RH  061%=      5-min Rain = 0
KME1 132046Z 20009KT 07/00 A3003 RMK A01 T00740004  RH  061%=      5-min Rain = 0
KME1 132047Z 20009KT 07/00 A3003 RMK A01 T00740004  RH  061%=      5-min Rain = 0
KME1 132048Z 19009KT 07/00 A3002 RMK A01 T00740004  RH  061%=      5-min Rain = 0
KME1 132049Z 19012KT 07/00 A3002 RMK A01 T00740004  RH  061%=      5-min Rain = 0
KME1 132050Z 19009KT 07/00 A3003 RMK A01 T00740004  RH  061%=      5-min Rain = 0
KME1 132051Z 20013KT 07/00 A3002 RMK A01 T00740004  RH  061%=      5-min Rain = 0
KME1 132052Z 18009KT 07/00 A3002 RMK A01 T00730004  RH  062%=      5-min Rain = 0
KME1 132053Z 18011KT 07/00 A3002 RMK A01 T00730004  RH  062%=      5-min Rain = 0
KME1 132054Z 19012KT 07/00 A3002 RMK A01 T00730004  RH  061%=      5-min Rain = 0
KME1 132055Z 20009KT 07/00 A3002 RMK A01 T00720003  RH  062%=      5-min Rain = 0
KME1 132056Z 19009KT 07/00 A3002 RMK A01 T00720004  RH  062%=      5-min Rain = 0
KME1 132057Z 20008KT 07/01 A3002 RMK A01 T00720005  RH  062%=      5-min Rain = 0
KME1 132058Z 20009KT 07/01 A3002 RMK A01 T00720005  RH  062%=      5-min Rain = 0
KME1 132059Z 20008KT 07/01 A3002 RMK A01 T00730005  RH  062%=      5-min Rain = 0
KME1 132100Z 19009KT 07/01 A3002 RMK A01 T00730005  RH  062%=      5-min Rain = 0
KME1 132101Z 19008KT 07/01 A3002 RMK A01 T00730006  RH  062%=      5-min Rain = 0
KME1 132102Z 18011KT 07/01 A3002 RMK A01 T00730005  RH  062%=      5-min Rain = 0
KME1 132103Z 19010KT 07/01 A3002 RMK A01 T00730005  RH  062%=      5-min Rain = 0
KME1 132104Z 19009KT 07/01 A3002 RMK A01 T00720005  RH  062%=      5-min Rain = 0
KME1 132105Z 20010KT 07/01 A3002 RMK A01 T00720005  RH  063%=      5-min Rain = 0
KME1 132106Z 20012KT 07/01 A3002 RMK A01 T00720005  RH  063%=      5-min Rain = 0
KME1 132107Z 20010KT 07/00 A3002 RMK A01 T00710004  RH  063%=      5-min Rain = 0
KME1 132108Z 20011KT 07/01 A3002 RMK A01 T00700005  RH  063%=      5-min Rain = 0
KME1 132109Z 20009KT 07/01 A3002 RMK A01 T00700005  RH  063%=      5-min Rain = 0
KME1 132110Z 21010KT 07/01 A3002 RMK A01 T00700006  RH  064%=      5-min Rain = 0
KME1 132111Z 21010KT 07/01 A3002 RMK A01 T00700006  RH  064%=      5-min Rain = 0
KME1 132112Z 21012KT 07/01 A3002 RMK A01 T00700006  RH  064%=      5-min Rain = 0
KME1 132113Z 21009KT 07/01 A3002 RMK A01 T00700006  RH  064%=      5-min Rain = 0
KME1 132114Z 20009KT 07/01 A3002 RMK A01 T00690006  RH  064%=      5-min Rain = 0
KME1 132115Z 21009KT 07/01 A3002 RMK A01 T00680006  RH  064%=      5-min Rain = 0
KME1 132116Z 21010KT 07/01 A3001 RMK A01 T00690007  RH  064%=      5-min Rain = 0
KME1 132117Z 21011KT 07/01 A3001 RMK A01 T00680006  RH  065%=      5-min Rain = 0
KME1 132118Z 20009KT 07/01 A3001 RMK A01 T00680006  RH  065%=      5-min Rain = 0
KME1 132119Z 20011KT 07/01 A3002 RMK A01 T00670006  RH  065%=      5-min Rain = 0
KME1 132120Z 20010KT 07/01 A3002 RMK A01 T00670006  RH  065%=      5-min Rain = 0
KME1 132121Z 21008KT 07/01 A3002 RMK A01 T00660006  RH  065%=      5-min Rain = 0
KME1 132122Z 21011KT 07/01 A3001 RMK A01 T00660006  RH  066%=      5-min Rain = 0
KME1 132123Z 21010KT 07/01 A3001 RMK A01 T00660006  RH  066%=      5-min Rain = 0
KME1 132124Z 21011KT 07/01 A3001 RMK A01 T00660006  RH  066%=      5-min Rain = 0
KME1 132125Z 20008KT 07/01 A3001 RMK A01 T00660007  RH  066%=      5-min Rain = 0
KME1 132126Z 21009KT 07/01 A3001 RMK A01 T00660007  RH  066%=      5-min Rain = 0
KME1 132127Z 20010KT 07/01 A3001 RMK A01 T00660007  RH  066%=      5-min Rain = 0
KME1 132128Z 21010KT 07/01 A3001 RMK A01 T00660007  RH  066%=      5-min Rain = 0
KME1 132129Z 21012KT 07/01 A3001 RMK A01 T00650007  RH  066%=      5-min Rain = 0
KME1 132130Z 20010KT 07/01 A3001 RMK A01 T00650006  RH  066%=      5-min Rain = 0
KME1 132131Z 20012KT 06/01 A3001 RMK A01 T00640007  RH  067%=      5-min Rain = 0
KME1 132132Z 20010KT 06/01 A3001 RMK A01 T00640006  RH  067%=      5-min Rain = 0
KME1 132133Z 20010KT 06/01 A3001 RMK A01 T00640007  RH  067%=      5-min Rain = 0
KME1 132134Z 20010KT 06/01 A3001 RMK A01 T00640007  RH  067%=      5-min Rain = 0
KME1 132135Z 20010G15KT 06/01 A3001 RMK A01 T00640007  RH  067%=      5-min Rain = 0
KME1 132136Z 21010KT 06/01 A3001 RMK A01 T00640007  RH  067%=      5-min Rain = 0
KME1 132137Z 21012KT 06/01 A3001 RMK A01 T00640008  RH  067%=      5-min Rain = 0
KME1 132138Z 20010KT 06/01 A3001 RMK A01 T00640008  RH  067%=      5-min Rain = 0
KME1 132139Z 21011KT 06/01 A3001 RMK A01 T00640008  RH  067%=      5-min Rain = 0
KME1 132140Z 20010KT 06/01 A3001 RMK A01 T00630007  RH  067%=      5-min Rain = 0
KME1 132141Z 21011KT 06/01 A3001 RMK A01 T00630008  RH  068%=      5-min Rain = 0
KME1 132142Z 21011KT 06/01 A3001 RMK A01 T00640008  RH  068%=      5-min Rain = 0
KME1 132143Z 20010KT 06/01 A3001 RMK A01 T00640008  RH  068%=      5-min Rain = 0
KME1 132144Z 20012KT 06/01 A3001 RMK A01 T00640008  RH  068%=      5-min Rain = 0
KME1 132145Z 20011KT 06/01 A3001 RMK A01 T00640008  RH  068%=      5-min Rain = 0
KME1 132146Z 21011KT 06/01 A3001 RMK A01 T00640008  RH  068%=      5-min Rain = 0
KME1 132147Z 20012KT 06/01 A3001 RMK A01 T00630008  RH  068%=      5-min Rain = 0
KME1 132148Z 21011KT 06/01 A3001 RMK A01 T00630008  RH  068%=      5-min Rain = 0
KME1 132149Z 20012KT 06/01 A3001 RMK A01 T00630008  RH  068%=      5-min Rain = 0
KME1 132150Z 20009KT 06/01 A3001 RMK A01 T00630008  RH  068%=      5-min Rain = 0
KME1 132151Z 19009KT 06/01 A3001 RMK A01 T00630009  RH  068%=      5-min Rain = 0
KME1 132152Z 19010G15KT 06/01 A3001 RMK A01 T00630009  RH  068%=      5-min Rain = 0
KME1 132153Z 18013KT 06/01 A30 RMK A01 T00630008  RH  068%=      5-min Rain = 0
KME1 132154Z 18013G18KT 06/01 A30 RMK A01 T00630008  RH  068%=      5-min Rain = 0
KME1 132155Z 19013KT 06/01 A30 RMK A01 T00620008  RH  068%=      5-min Rain = 0
KME1 132156Z 20011KT 06/01 A30 RMK A01 T00620009  RH  069%=      5-min Rain = 0
KME1 132157Z 20013KT 06/01 A30 RMK A01 T00620009  RH  069%=      5-min Rain = 0
KME1 132158Z 20011KT 06/01 A30 RMK A01 T00620008  RH  069%=      5-min Rain = 0
KME1 132159Z 19011KT 06/01 A30 RMK A01 T00610008  RH  069%=      5-min Rain = 0
KME1 132200Z 19009KT 06/01 A30 RMK A01 T00610008  RH  069%=      5-min Rain = 0
KME1 132201Z 19013KT 06/01 A30 RMK A01 T00610008  RH  069%=      5-min Rain = 0
KME1 132202Z 18007KT 06/01 A30 RMK A01 T00610008  RH  069%=      5-min Rain = 0
KME1 132203Z 18011KT 06/01 A30 RMK A01 T00610009  RH  069%=      5-min Rain = 0
KME1 132204Z 19009KT 06/01 A30 RMK A01 T00610009  RH  069%=      5-min Rain = 0
KME1 132205Z 20009KT 06/01 A3001 RMK A01 T00610009  RH  069%=      5-min Rain = 0
KME1 132206Z 20009KT 06/01 A30 RMK A01 T00610009  RH  069%=      5-min Rain = 0
KME1 132207Z 18010KT 06/01 A30 RMK A01 T00610009  RH  069%=      5-min Rain = 0
KME1 132208Z 19011KT 06/01 A30 RMK A01 T00600009  RH  070%=      5-min Rain = 0
KME1 132209Z 19008G13KT 06/01 A3001 RMK A01 T00600009  RH  070%=      5-min Rain = 0
KME1 132210Z 20011KT 06/01 A3001 RMK A01 T00600009  RH  070%=      5-min Rain = 0
KME1 132211Z 18010G15KT 06/01 A3001 RMK A01 T00600010  RH  070%=      5-min Rain = 0
KME1 132212Z 19013G18KT 06/01 A3001 RMK A01 T00600009  RH  070%=      5-min Rain = 0
KME1 132213Z 20010KT 06/01 A3001 RMK A01 T00590009  RH  070%=      5-min Rain = 0
KME1 132214Z 20010KT 06/01 A3001 RMK A01 T00590010  RH  071%=      5-min Rain = 0
KME1 132215Z 19008G13KT 06/01 A3001 RMK A01 T00590010  RH  071%=      5-min Rain = 0
KME1 132216Z 20007KT 06/01 A3001 RMK A01 T00590010  RH  071%=      5-min Rain = 0
KME1 132217Z 20011KT 06/01 A30 RMK A01 T00600011  RH  071%=      5-min Rain = 0
KME1 132218Z 20011KT 06/01 A3001 RMK A01 T00600010  RH  070%=      5-min Rain = 0
KME1 132219Z 20011KT 06/01 A30 RMK A01 T00600010  RH  071%=      5-min Rain = 0
KME1 132220Z 20009KT 06/01 A30 RMK A01 T00600010  RH  071%=      5-min Rain = 0
KME1 132221Z 19011KT 06/01 A30 RMK A01 T00600011  RH  071%=      5-min Rain = 0
KME1 132222Z 18012KT 06/01 A30 RMK A01 T00600011  RH  071%=      5-min Rain = 0
KME1 132223Z 18010KT 06/01 A30 RMK A01 T00590010  RH  071%=      5-min Rain = 0
KME1 132224Z 19009KT 06/01 A30 RMK A01 T00590011  RH  071%=      5-min Rain = 0
KME1 132225Z 20011KT 06/01 A30 RMK A01 T00590011  RH  071%=      5-min Rain = 0
KME1 132226Z 20011KT 06/01 A30 RMK A01 T00590011  RH  071%=      5-min Rain = 0
KME1 132227Z 20009KT 06/01 A30 RMK A01 T00590012  RH  071%=      5-min Rain = 0
KME1 132228Z 20010KT 06/01 A30 RMK A01 T00590012  RH  072%=      5-min Rain = 0
KME1 132229Z 19009KT 06/01 A30 RMK A01 T00600012  RH  071%=      5-min Rain = 0
KME1 132230Z 20010KT 06/01 A30 RMK A01 T00600013  RH  072%=      5-min Rain = 0
KME1 132231Z 19007KT 06/01 A30 RMK A01 T00610013  RH  071%=      5-min Rain = 0
KME1 132232Z 19006KT 06/01 A30 RMK A01 T00610013  RH  071%=      5-min Rain = 0
KME1 132233Z 19007KT 06/01 A30 RMK A01 T00620014  RH  071%=      5-min Rain = 0
KME1 132234Z 18007KT 06/01 A30 RMK A01 T00620014  RH  071%=      5-min Rain = 0
KME1 132235Z 19006KT 06/01 A30 RMK A01 T00620014  RH  071%=      5-min Rain = 0
KME1 132236Z 19006KT 06/01 A30 RMK A01 T00630014  RH  071%=      5-min Rain = 0
KME1 132237Z 18008KT 06/01 A30 RMK A01 T00630014  RH  071%=      5-min Rain = 0
KME1 132238Z 18006KT 06/01 A30 RMK A01 T00630014  RH  071%=      5-min Rain = 0
KME1 132239Z 19011KT 06/02 A2999 RMK A01 T00630015  RH  071%=      5-min Rain = 0
KME1 132240Z 18010KT 06/02 A2999 RMK A01 T00620015  RH  071%=      5-min Rain = 0
KME1 132241Z 19007KT 06/02 A2999 RMK A01 T00620015  RH  072%=      5-min Rain = 0
KME1 132242Z 18008KT 06/02 A2999 RMK A01 T00620015  RH  072%=      5-min Rain = 0
KME1 132243Z 18009KT 06/02 A2999 RMK A01 T00620015  RH  072%=      5-min Rain = 0
KME1 132244Z 19010KT 06/02 A2999 RMK A01 T00620015  RH  072%=      5-min Rain = 0
KME1 132245Z 19007KT 06/02 A2999 RMK A01 T00610015  RH  072%=      5-min Rain = 0
KME1 132246Z 19008KT 06/02 A2999 RMK A01 T00610015  RH  073%=      5-min Rain = 0
KME1 132247Z 18009KT 06/02 A2999 RMK A01 T00610016  RH  073%=      5-min Rain = 0
KME1 132248Z 17010KT 06/02 A2999 RMK A01 T00610016  RH  073%=      5-min Rain = 0
KME1 132249Z 18009KT 06/02 A2999 RMK A01 T00610016  RH  073%=      5-min Rain = 0
KME1 132250Z 19008KT 06/02 A2999 RMK A01 T00610016  RH  073%=      5-min Rain = 0
KME1 132251Z 19007KT 06/02 A2999 RMK A01 T00610017  RH  073%=      5-min Rain = 0
KME1 132252Z 19006KT 06/02 A2999 RMK A01 T00610017  RH  073%=      5-min Rain = 0
KME1 132253Z 19010KT 06/02 A2999 RMK A01 T00610017  RH  073%=      5-min Rain = 0
KME1 132254Z 20010KT 06/02 A2999 RMK A01 T00610017  RH  073%=      5-min Rain = 0
KME1 132255Z 20010KT 06/02 A2999 RMK A01 T00610017  RH  073%=      5-min Rain = 0
KME1 132256Z 19008KT 06/02 A2999 RMK A01 T00610017  RH  073%=      5-min Rain = 0
KME1 132257Z 19009KT 06/02 A2999 RMK A01 T00610017  RH  073%=      5-min Rain = 0
KME1 132258Z 19008KT 06/02 A2999 RMK A01 T00610018  RH  074%=      5-min Rain = 0
KME1 132259Z 19010KT 06/02 A2999 RMK A01 T00610018  RH  074%=      5-min Rain = 0
KME1 132300Z 19007KT 06/02 A2999 RMK A01 T00610018  RH  074%=      5-min Rain = 0
KME1 132301Z 19008G13KT 06/02 A30 RMK A01 T00610018  RH  074%=      5-min Rain = 0
KME1 132302Z 20010KT 06/02 A30 RMK A01 T00610018  RH  074%=      5-min Rain = 0
KME1 132303Z 20008KT 06/02 A30 RMK A01 T00610019  RH  074%=      5-min Rain = 0
KME1 132304Z 21007KT 06/02 A2999 RMK A01 T00610019  RH  074%=      5-min Rain = 0
KME1 132305Z 20008KT 06/02 A2999 RMK A01 T00610019  RH  074%=      5-min Rain = 0
KME1 132306Z 20008KT 06/02 A2999 RMK A01 T00610019  RH  074%=      5-min Rain = 0
KME1 132307Z 20011KT 06/02 A2999 RMK A01 T00610019  RH  074%=      5-min Rain = 0
KME1 132308Z 19009KT 06/02 A30 RMK A01 T00610019  RH  075%=      5-min Rain = 0
KME1 132309Z 19008G15KT 06/02 A30 RMK A01 T00610020  RH  075%=      5-min Rain = 0
KME1 132310Z 19011KT 06/02 A30 RMK A01 T00610019  RH  075%=      5-min Rain = 0
KME1 132311Z 19012G17KT 06/02 A30 RMK A01 T00600019  RH  075%=      5-min Rain = 0
KME1 132312Z 20010KT 06/02 A30 RMK A01 T00600019  RH  075%=      5-min Rain = 0
KME1 132313Z 20011KT 06/02 A30 RMK A01 T00600019  RH  075%=      5-min Rain = 0
KME1 132314Z 19007KT 06/02 A30 RMK A01 T00600020  RH  075%=      5-min Rain = 0
KME1 132315Z 18008KT 06/02 A30 RMK A01 T00590019  RH  075%=      5-min Rain = 0
KME1 132316Z 19010KT 06/02 A30 RMK A01 T00590020  RH  076%=      5-min Rain = 0
KME1 132317Z 19011KT 06/02 A30 RMK A01 T00590020  RH  076%=      5-min Rain = 0
KME1 132318Z 19009KT 06/02 A30 RMK A01 T00580019  RH  076%=      5-min Rain = 0
KME1 132319Z 19008KT 06/02 A30 RMK A01 T00580019  RH  076%=      5-min Rain = 0
KME1 132320Z 19009KT 06/02 A30 RMK A01 T00580019  RH  076%=      5-min Rain = 0
KME1 132321Z 19010G15KT 06/02 A30 RMK A01 T00580019  RH  076%=      5-min Rain = 0
KME1 132322Z 19011KT 06/02 A30 RMK A01 T00580019  RH  076%=      5-min Rain = 0
KME1 132323Z 19009KT 06/02 A30 RMK A01 T00570019  RH  076%=      5-min Rain = 0
KME1 132324Z 19011KT 06/02 A30 RMK A01 T00570019  RH  077%=      5-min Rain = 0
KME1 132325Z 20008KT 06/02 A30 RMK A01 T00570019  RH  077%=      5-min Rain = 0
KME1 132326Z 20008KT 06/02 A30 RMK A01 T00570019  RH  077%=      5-min Rain = 0
KME1 132327Z 20007KT 06/02 A30 RMK A01 T00570020  RH  077%=      5-min Rain = 0
KME1 132328Z 19005KT 06/02 A30 RMK A01 T00570019  RH  077%=      5-min Rain = 0
KME1 132329Z 19006KT 06/02 A30 RMK A01 T00570019  RH  077%=      5-min Rain = 0
KME1 132330Z 20007KT 06/02 A30 RMK A01 T00570019  RH  077%=      5-min Rain = 0
KME1 132331Z 20006KT 06/02 A30 RMK A01 T00570020  RH  077%=      5-min Rain = 0
KME1 132332Z 20006KT 06/02 A30 RMK A01 T00560019  RH  077%=      5-min Rain = 0
KME1 132333Z 20006KT 06/02 A30 RMK A01 T00560019  RH  077%=      5-min Rain = 0
KME1 132334Z 20005KT 06/02 A30 RMK A01 T00560019  RH  077%=      5-min Rain = 0
KME1 132335Z 19007KT 06/02 A30 RMK A01 T00560019  RH  077%=      5-min Rain = 0
KME1 132336Z 19007KT 06/02 A30 RMK A01 T00560019  RH  077%=      5-min Rain = 0
KME1 132337Z 19007KT 06/02 A30 RMK A01 T00560019  RH  077%=      5-min Rain = 0
KME1 132338Z 19008KT 06/02 A30 RMK A01 T00560019  RH  077%=      5-min Rain = 0
KME1 132339Z 19008KT 06/02 A30 RMK A01 T00560019  RH  077%=      5-min Rain = 0
KME1 132340Z 20007KT 06/02 A30 RMK A01 T00560019  RH  077%=      5-min Rain = 0
KME1 132341Z 20008KT 06/02 A30 RMK A01 T00560019  RH  077%=      5-min Rain = 0
KME1 132342Z 19008KT 06/02 A30 RMK A01 T00560019  RH  077%=      5-min Rain = 0
KME1 132343Z 21007KT 06/02 A30 RMK A01 T00560019  RH  077%=      5-min Rain = 0
KME1 132344Z 19007KT 06/02 A30 RMK A01 T00560018  RH  077%=      5-min Rain = 0
KME1 132345Z 19009KT 06/02 A30 RMK A01 T00560018  RH  077%=      5-min Rain = 0
KME1 132346Z 18008KT 06/02 A30 RMK A01 T00560018  RH  077%=      5-min Rain = 0
KME1 132347Z 19006KT 06/02 A30 RMK A01 T00560018  RH  077%=      5-min Rain = 0
KME1 132348Z 19007KT 06/02 A30 RMK A01 T00560018  RH  077%=      5-min Rain = 0
KME1 132349Z 19005KT 06/02 A30 RMK A01 T00560018  RH  077%=      5-min Rain = 0
KME1 132350Z 19006KT 06/02 A30 RMK A01 T00550018  RH  077%=      5-min Rain = 0
KME1 132351Z 19010KT 06/02 A30 RMK A01 T00550018  RH  077%=      5-min Rain = 0
KME1 132352Z 19009KT 06/02 A30 RMK A01 T00550017  RH  076%=      5-min Rain = 0
KME1 132353Z 19007KT 06/02 A30 RMK A01 T00550017  RH  076%=      5-min Rain = 0
KME1 132354Z 19007KT 06/02 A30 RMK A01 T00550017  RH  076%=      5-min Rain = 0
KME1 132355Z 19006KT 06/02 A30 RMK A01 T00550017  RH  076%=      5-min Rain = 0
KME1 132356Z 19008KT 06/02 A30 RMK A01 T00550017  RH  076%=      5-min Rain = 0
KME1 132357Z 20008KT 06/02 A30 RMK A01 T00550017  RH  076%=      5-min Rain = 0
KME1 132358Z 20007KT 06/02 A30 RMK A01 T00550017  RH  076%=      5-min Rain = 0
KME1 132359Z 19009KT 06/02 A30 RMK A01 T00550016  RH  076%=      5-min Rain = 0
KME1 140000Z 20008KT 06/02 A30 RMK A01 T00550016  RH  076%=      5-min Rain = 0
KME1 140001Z 19007KT 06/02 A30 RMK A01 T00550016  RH  076%=      5-min Rain = 0
KME1 140002Z 19007KT 06/02 A30 RMK A01 T00550016  RH  076%=      5-min Rain = 0
KME1 140003Z 18006KT 06/02 A30 RMK A01 T00550015  RH  076%=      5-min Rain = 0
KME1 140004Z 18008KT 06/02 A30 RMK A01 T00550016  RH  076%=      5-min Rain = 0
KME1 140005Z 19006KT 06/02 A30 RMK A01 T00550016  RH  076%=      5-min Rain = 0
KME1 140006Z 19007KT 06/02 A30 RMK A01 T00550016  RH  076%=      5-min Rain = 0
KME1 140007Z 19005KT 06/02 A30 RMK A01 T00550016  RH  076%=      5-min Rain = 0
KME1 140008Z 19006KT 06/02 A30 RMK A01 T00550016  RH  076%=      5-min Rain = 0
KME1 140009Z 19009KT 06/02 A30 RMK A01 T00550016  RH  076%=      5-min Rain = 0
KME1 140010Z 20006KT 06/02 A30 RMK A01 T00550016  RH  076%=      5-min Rain = 0
KME1 140011Z 19004KT 06/02 A30 RMK A01 T00550016  RH  076%=      5-min Rain = 0
KME1 140012Z 19005KT 06/02 A30 RMK A01 T00550016  RH  076%=      5-min Rain = 0
KME1 140013Z 19006KT 06/02 A30 RMK A01 T00550016  RH  076%=      5-min Rain = 0
KME1 140014Z 18006KT 06/02 A30 RMK A01 T00550016  RH  076%=      5-min Rain = 0
KME1 140015Z 19006KT 06/02 A30 RMK A01 T00550016  RH  076%=      5-min Rain = 0
KME1 140016Z 19006KT 06/02 A30 RMK A01 T00550016  RH  076%=      5-min Rain = 0
KME1 140017Z 19006KT 06/02 A30 RMK A01 T00550016  RH  076%=      5-min Rain = 0
KME1 140018Z 19006KT 06/02 A30 RMK A01 T00550016  RH  076%=      5-min Rain = 0
KME1 140019Z 19006KT 06/02 A30 RMK A01 T00550016  RH  076%=      5-min Rain = 0
KME1 140020Z 18006KT 06/02 A30 RMK A01 T00550016  RH  076%=      5-min Rain = 0
KME1 140021Z 19006KT 06/02 A30 RMK A01 T00550016  RH  076%=      5-min Rain = 0
KME1 140022Z 19006KT 05/02 A30 RMK A01 T00540016  RH  076%=      5-min Rain = 0
KME1 140023Z 19007KT 05/02 A30 RMK A01 T00540016  RH  076%=      5-min Rain = 0
KME1 140024Z 18007KT 06/02 A30 RMK A01 T00550015  RH  076%=      5-min Rain = 0
KME1 140025Z 19006KT 05/02 A30 RMK A01 T00540015  RH  076%=      5-min Rain = 0
KME1 140026Z 19008KT 05/02 A30 RMK A01 T00540015  RH  076%=      5-min Rain = 0
KME1 140027Z 19008KT 05/01 A30 RMK A01 T00540014  RH  075%=      5-min Rain = 0
KME1 140028Z 19008KT 05/01 A30 RMK A01 T00540014  RH  075%=      5-min Rain = 0
KME1 140029Z 19009KT 05/01 A30 RMK A01 T00540014  RH  075%=      5-min Rain = 0
KME1 140030Z 19008KT 05/01 A30 RMK A01 T00540014  RH  075%=      5-min Rain = 0
KME1 140031Z 20008KT 05/01 A30 RMK A01 T00540014  RH  075%=      5-min Rain = 0
KME1 140032Z 19007KT 05/01 A30 RMK A01 T00540014  RH  075%=      5-min Rain = 0
KME1 140033Z 19006KT 05/01 A30 RMK A01 T00540014  RH  075%=      5-min Rain = 0
KME1 140034Z 19006KT 05/01 A30 RMK A01 T00540014  RH  075%=      5-min Rain = 0
KME1 140035Z 19007KT 05/01 A30 RMK A01 T00540014  RH  075%=      5-min Rain = 0
KME1 140036Z 18006KT 05/01 A30 RMK A01 T00540014  RH  075%=      5-min Rain = 0
KME1 140037Z 20005KT 05/01 A30 RMK A01 T00540014  RH  075%=      5-min Rain = 0
KME1 140038Z 19008KT 05/01 A30 RMK A01 T00540014  RH  075%=      5-min Rain = 0
KME1 140039Z 19007KT 05/01 A30 RMK A01 T00540014  RH  075%=      5-min Rain = 0
KME1 140040Z 18006KT 05/01 A30 RMK A01 T00540014  RH  075%=      5-min Rain = 0
KME1 140041Z 18008KT 05/01 A30 RMK A01 T00540013  RH  075%=      5-min Rain = 0
KME1 140042Z 20006KT 05/01 A30 RMK A01 T00540013  RH  075%=      5-min Rain = 0
KME1 140043Z 19005KT 05/01 A30 RMK A01 T00540013  RH  075%=      5-min Rain = 0
KME1 140044Z 21006KT 05/01 A30 RMK A01 T00540013  RH  075%=      5-min Rain = 0
KME1 140045Z 19004KT 05/01 A3001 RMK A01 T00540013  RH  075%=      5-min Rain = 0
KME1 140046Z 19003KT 05/01 A3001 RMK A01 T00540014  RH  075%=      5-min Rain = 0
KME1 140047Z 20005KT 06/01 A3001 RMK A01 T00550014  RH  075%=      5-min Rain = 0
KME1 140048Z 20005KT 06/01 A3001 RMK A01 T00550014  RH  075%=      5-min Rain = 0
KME1 140049Z 21004KT 05/01 A3001 RMK A01 T00540013  RH  075%=      5-min Rain = 0
KME1 140050Z 19005KT 05/01 A3001 RMK A01 T00540014  RH  075%=      5-min Rain = 0
KME1 140051Z 19006KT 05/01 A3001 RMK A01 T00540014  RH  075%=      5-min Rain = 0
KME1 140052Z 20005KT 05/01 A3001 RMK A01 T00540014  RH  075%=      5-min Rain = 0
KME1 140053Z 20005KT 05/01 A3001 RMK A01 T00540014  RH  075%=      5-min Rain = 0
KME1 140054Z 20006KT 05/01 A3001 RMK A01 T00540014  RH  075%=      5-min Rain = 0
KME1 140055Z 20005KT 05/01 A3001 RMK A01 T00540014  RH  075%=      5-min Rain = 0
KME1 140056Z 19004KT 05/01 A3001 RMK A01 T00540013  RH  075%=      5-min Rain = 0
KME1 140057Z 19004KT 05/01 A3001 RMK A01 T00540013  RH  075%=      5-min Rain = 0
KME1 140058Z 20004KT 05/01 A3001 RMK A01 T00540014  RH  075%=      5-min Rain = 0
KME1 140059Z 19005KT 05/01 A3001 RMK A01 T00540014  RH  075%=      5-min Rain = 0
KME1 140100Z 19005KT 05/01 A3001 RMK A01 T00540014  RH  075%=      5-min Rain = 0
KME1 140101Z 20004KT 05/01 A3001 RMK A01 T00540013  RH  075%=      5-min Rain = 0
KME1 140102Z 20003KT 05/01 A3001 RMK A01 T00540013  RH  075%=      5-min Rain = 0
KME1 140103Z 21003KT 05/01 A3001 RMK A01 T00540013  RH  075%=      5-min Rain = 0
KME1 140104Z 19003KT 05/01 A3001 RMK A01 T00540013  RH  075%=      5-min Rain = 0
KME1 140105Z 19002KT 05/01 A3001 RMK A01 T00540014  RH  075%=      5-min Rain = 0
KME1 140106Z 21002KT 05/01 A3001 RMK A01 T00540013  RH  075%=      5-min Rain = 0
KME1 140107Z 20002KT 05/01 A3001 RMK A01 T00540014  RH  075%=      5-min Rain = 0
KME1 140108Z 19003KT 05/01 A3001 RMK A01 T00540014  RH  075%=      5-min Rain = 0
KME1 140109Z 19004KT 05/01 A3001 RMK A01 T00540014  RH  075%=      5-min Rain = 0
KME1 140110Z 19005KT 05/01 A3001 RMK A01 T00540014  RH  075%=      5-min Rain = 0
KME1 140111Z 20004KT 05/01 A3001 RMK A01 T00540014  RH  075%=      5-min Rain = 0
KME1 140112Z 21004KT 05/01 A3001 RMK A01 T00540014  RH  075%=      5-min Rain = 0
KME1 140113Z 21004KT 05/01 A3002 RMK A01 T00540014  RH  075%=      5-min Rain = 0
KME1 140114Z 21004KT 05/01 A3002 RMK A01 T00540014  RH  075%=      5-min Rain = 0
KME1 140115Z 21003KT 05/01 A3002 RMK A01 T00540014  RH  075%=      5-min Rain = 0
KME1 140116Z 21003KT 05/01 A3002 RMK A01 T00540014  RH  075%=      5-min Rain = 0
KME1 140117Z 21002KT 05/01 A3002 RMK A01 T00540014  RH  075%=      5-min Rain = 0
KME1 140118Z 22001KT 05/01 A3002 RMK A01 T00540014  RH  075%=      5-min Rain = 0
KME1 140119Z 21002KT 05/01 A3002 RMK A01 T00540014  RH  075%=      5-min Rain = 0
KME1 140120Z 20002KT 05/01 A3002 RMK A01 T00540014  RH  076%=      5-min Rain = 0
KME1 140121Z 22002KT 05/01 A3003 RMK A01 T00540014  RH  076%=      5-min Rain = 0
KME1 140122Z 22002KT 05/02 A3003 RMK A01 T00540015  RH  076%=      5-min Rain = 0
KME1 140123Z 21002KT 05/02 A3003 RMK A01 T00540015  RH  076%=      5-min Rain = 0
KME1 140124Z 21002KT 05/02 A3003 RMK A01 T00530015  RH  076%=      5-min Rain = 0
KME1 140125Z 22002KT 05/02 A3003 RMK A01 T00530015  RH  076%=      5-min Rain = 0
KME1 140126Z 21002KT 05/02 A3003 RMK A01 T00530015  RH  076%=      5-min Rain = 0
KME1 140127Z 21003KT 05/02 A3003 RMK A01 T00530015  RH  077%=      5-min Rain = 0
KME1 140128Z 19002KT 05/02 A3003 RMK A01 T00530015  RH  077%=      5-min Rain = 0
KME1 140129Z 18002KT 05/02 A3003 RMK A01 T00530015  RH  077%=      5-min Rain = 0
KME1 140130Z 18002KT 05/02 A3003 RMK A01 T00520015  RH  077%=      5-min Rain = 0
KME1 140131Z 19002KT 05/02 A3003 RMK A01 T00520015  RH  077%=      5-min Rain = 0
KME1 140132Z 19001KT 05/02 A3003 RMK A01 T00520015  RH  077%=      5-min Rain = 0
KME1 140133Z 20001KT 05/02 A3003 RMK A01 T00520015  RH  077%=      5-min Rain = 0
KME1 140134Z 19002KT 05/02 A3003 RMK A01 T00520015  RH  077%=      5-min Rain = 0
KME1 140135Z 19001KT 05/02 A3003 RMK A01 T00520015  RH  077%=      5-min Rain = 0
KME1 140136Z 18001KT 05/02 A3003 RMK A01 T00520015  RH  077%=      5-min Rain = 0
KME1 140137Z 19001KT 05/02 A3003 RMK A01 T00520015  RH  077%=      5-min Rain = 0
KME1 140138Z 20002KT 05/02 A3003 RMK A01 T00520015  RH  077%=      5-min Rain = 0
KME1 140139Z 20002KT 05/02 A3003 RMK A01 T00520015  RH  077%=      5-min Rain = 0
KME1 140140Z 20002KT 05/02 A3003 RMK A01 T00520016  RH  077%=      5-min Rain = 0
KME1 140141Z 19002KT 05/02 A3003 RMK A01 T00510016  RH  078%=      5-min Rain = 0
KME1 140142Z 18002KT 05/02 A3003 RMK A01 T00510016  RH  078%=      5-min Rain = 0
KME1 140143Z 19002KT 05/02 A3003 RMK A01 T00500016  RH  078%=      5-min Rain = 0
KME1 140144Z 18001KT 05/02 A3003 RMK A01 T00500016  RH  078%=      5-min Rain = 0
KME1 140145Z 00000KT 05/02 A3003 RMK A01 T00500016  RH  079%=      5-min Rain = 0
KME1 140146Z 00000KT 05/02 A3003 RMK A01 T00500017  RH  079%=      5-min Rain = 0
KME1 140147Z 00000KT 05/02 A3003 RMK A01 T00500016  RH  079%=      5-min Rain = 0
KME1 140148Z 00000KT 05/02 A3003 RMK A01 T00490016  RH  079%=      5-min Rain = 0
KME1 140149Z 00000KT 05/02 A3003 RMK A01 T00490016  RH  079%=      5-min Rain = 0
KME1 140150Z 15000KT 05/02 A3004 RMK A01 T00480016  RH  080%=      5-min Rain = 0
KME1 140151Z 15000KT 05/02 A3004 RMK A01 T00490017  RH  080%=      5-min Rain = 0
KME1 140152Z 00000KT 05/02 A3004 RMK A01 T00480017  RH  080%=      5-min Rain = 0
KME1 140153Z 00000KT 05/02 A3004 RMK A01 T00480018  RH  081%=      5-min Rain = 0
KME1 140154Z 00000KT 05/02 A3004 RMK A01 T00480017  RH  081%=      5-min Rain = 0
KME1 140155Z 00000KT 05/02 A3004 RMK A01 T00470017  RH  081%=      5-min Rain = 0
KME1 140156Z 13000KT 05/02 A3004 RMK A01 T00480017  RH  081%=      5-min Rain = 0
KME1 140157Z 13001KT 05/02 A3004 RMK A01 T00470017  RH  080%=      5-min Rain = 0
KME1 140158Z 13001KT 05/02 A3004 RMK A01 T00470017  RH  081%=      5-min Rain = 0
KME1 140159Z 12001KT 05/02 A3004 RMK A01 T00470017  RH  081%=      5-min Rain = 0
KME1 140200Z 11001KT 05/02 A3004 RMK A01 T00480017  RH  081%=      5-min Rain = 0
KME1 140201Z 11001KT 05/02 A3004 RMK A01 T00480017  RH  081%=      5-min Rain = 0
KME1 140202Z 11002KT 05/02 A3004 RMK A01 T00470017  RH  081%=      5-min Rain = 0
KME1 140203Z 13002KT 05/02 A3004 RMK A01 T00470017  RH  081%=      5-min Rain = 0
KME1 140204Z 13002KT 05/02 A3004 RMK A01 T00470017  RH  081%=      5-min Rain = 0
KME1 140205Z 14002KT 05/02 A3004 RMK A01 T00470016  RH  081%=      5-min Rain = 0
KME1 140206Z 15003KT 05/02 A3003 RMK A01 T00460016  RH  081%=      5-min Rain = 0
KME1 140207Z 15003KT 05/02 A3003 RMK A01 T00450015  RH  081%=      5-min Rain = 0
KME1 140208Z 15003KT 05/02 A3003 RMK A01 T00450015  RH  081%=      5-min Rain = 0
KME1 140209Z 15003KT 04/02 A3003 RMK A01 T00440015  RH  081%=      5-min Rain = 0
KME1 140210Z 14003KT 04/02 A3003 RMK A01 T00440015  RH  082%=      5-min Rain = 0
KME1 140211Z 14002KT 04/02 A3003 RMK A01 T00430015  RH  082%=      5-min Rain = 0
KME1 140212Z 14002KT 04/02 A3003 RMK A01 T00430015  RH  082%=      5-min Rain = 0
KME1 140213Z 13002KT 04/02 A3004 RMK A01 T00430016  RH  082%=      5-min Rain = 0
KME1 140214Z 13001KT 04/02 A3004 RMK A01 T00430017  RH  083%=      5-min Rain = 0
KME1 140215Z 12001KT 04/02 A3004 RMK A01 T00430017  RH  083%=      5-min Rain = 0
KME1 140216Z 13001KT 04/02 A3004 RMK A01 T00430017  RH  083%=      5-min Rain = 0
KME1 140217Z 13000KT 04/02 A3004 RMK A01 T00430017  RH  083%=      5-min Rain = 0
KME1 140218Z 00000KT 04/02 A3004 RMK A01 T00430016  RH  083%=      5-min Rain = 0
KME1 140219Z 00000KT 04/02 A3004 RMK A01 T00440016  RH  082%=      5-min Rain = 0
KME1 140220Z 00000KT 04/02 A3004 RMK A01 T00440016  RH  082%=      5-min Rain = 0
KME1 140221Z 00000KT 04/02 A3004 RMK A01 T00440016  RH  082%=      5-min Rain = 0
KME1 140222Z 00000KT 05/02 A3004 RMK A01 T00450017  RH  082%=      5-min Rain = 0
KME1 140223Z 14000KT 05/02 A3004 RMK A01 T00450018  RH  082%=      5-min Rain = 0
KME1 140224Z 13001KT 05/02 A3004 RMK A01 T00450018  RH  083%=      5-min Rain = 0
KME1 140225Z 13001KT 05/02 A3004 RMK A01 T00450019  RH  083%=      5-min Rain = 0
KME1 140226Z 14001KT 05/02 A3004 RMK A01 T00450019  RH  083%=      5-min Rain = 0
KME1 140227Z 13001KT 05/02 A3004 RMK A01 T00450019  RH  083%=      5-min Rain = 0
KME1 140228Z 12000KT 05/02 A3004 RMK A01 T00450019  RH  083%=      5-min Rain = 0
KME1 140229Z 12000KT 05/02 A3004 RMK A01 T00450018  RH  083%=      5-min Rain = 0
KME1 140230Z 13001KT 04/02 A3004 RMK A01 T00440017  RH  082%=      5-min Rain = 0
KME1 140231Z 14001KT 04/02 A3004 RMK A01 T00440017  RH  082%=      5-min Rain = 0
KME1 140232Z 15002KT 05/02 A3004 RMK A01 T00450018  RH  083%=      5-min Rain = 0
KME1 140233Z 15001KT 05/02 A3004 RMK A01 T00450018  RH  083%=      5-min Rain = 0
KME1 140234Z 15001KT 04/02 A3004 RMK A01 T00440018  RH  083%=      5-min Rain = 0
KME1 140235Z 14001KT 04/02 A3004 RMK A01 T00440018  RH  083%=      5-min Rain = 0
KME1 140236Z 14002KT 04/02 A3004 RMK A01 T00440018  RH  083%=      5-min Rain = 0
KME1 140237Z 13002KT 04/02 A3004 RMK A01 T00430017  RH  083%=      5-min Rain = 0
KME1 140238Z 13002KT 04/02 A3004 RMK A01 T00430017  RH  083%=      5-min Rain = 0
KME1 140239Z 13002KT 04/02 A3004 RMK A01 T00430017  RH  083%=      5-min Rain = 0
KME1 140240Z 13002KT 04/02 A3005 RMK A01 T00420016  RH  083%=      5-min Rain = 0
KME1 140241Z 13002KT 04/02 A3005 RMK A01 T00410016  RH  084%=      5-min Rain = 0
KME1 140242Z 13002KT 04/02 A3005 RMK A01 T00410017  RH  084%=      5-min Rain = 0
KME1 140243Z 13002KT 04/02 A3005 RMK A01 T00410017  RH  085%=      5-min Rain = 0
KME1 140244Z 14002KT 04/02 A3005 RMK A01 T00400017  RH  085%=      5-min Rain = 0
KME1 140245Z 14002KT 04/02 A3005 RMK A01 T00400017  RH  085%=      5-min Rain = 0
KME1 140246Z 14001KT 04/02 A3005 RMK A01 T00400016  RH  085%=      5-min Rain = 0
KME1 140247Z 15001KT 04/02 A3005 RMK A01 T00400016  RH  085%=      5-min Rain = 0
KME1 140248Z 16002KT 04/02 A3005 RMK A01 T00390016  RH  085%=      5-min Rain = 0
KME1 140249Z 16002KT 04/02 A3005 RMK A01 T00390016  RH  085%=      5-min Rain = 0
KME1 140250Z 17002KT 04/02 A3005 RMK A01 T00390016  RH  085%=      5-min Rain = 0
KME1 140251Z 17002KT 04/02 A3005 RMK A01 T00390016  RH  085%=      5-min Rain = 0
KME1 140252Z 18003KT 04/02 A3005 RMK A01 T00390016  RH  085%=      5-min Rain = 0
KME1 140253Z 17003KT 04/02 A3005 RMK A01 T00400016  RH  084%=      5-min Rain = 0
KME1 140254Z 18003KT 04/02 A3005 RMK A01 T00410015  RH  083%=      5-min Rain = 0
KME1 140255Z 18004KT 04/02 A3005 RMK A01 T00400015  RH  083%=      5-min Rain = 0
KME1 140256Z 18004KT 04/02 A3005 RMK A01 T00400015  RH  084%=      5-min Rain = 0
KME1 140257Z 19004KT 04/02 A3005 RMK A01 T00400015  RH  084%=      5-min Rain = 0
KME1 140258Z 19004KT 04/02 A3005 RMK A01 T00400015  RH  084%=      5-min Rain = 0
KME1 140259Z 19004KT 04/02 A3005 RMK A01 T00410015  RH  084%=      5-min Rain = 0
KME1 140300Z 18004KT 04/02 A3005 RMK A01 T00410015  RH  084%=      5-min Rain = 0
KME1 140301Z 18004KT 04/02 A3005 RMK A01 T00400015  RH  084%=      5-min Rain = 0
KME1 140302Z 17003KT 04/02 A3005 RMK A01 T00400015  RH  084%=      5-min Rain = 0
KME1 140303Z 18003KT 04/02 A3005 RMK A01 T00410015  RH  084%=      5-min Rain = 0
KME1 140304Z 18003KT 04/02 A3005 RMK A01 T00400015  RH  084%=      5-min Rain = 0
KME1 140305Z 18002KT 04/02 A3005 RMK A01 T00400015  RH  084%=      5-min Rain = 0
KME1 140306Z 18003KT 04/02 A3005 RMK A01 T00400015  RH  084%=      5-min Rain = 0
KME1 140307Z 19003KT 04/02 A3005 RMK A01 T00400015  RH  084%=      5-min Rain = 0
KME1 140308Z 19003KT 04/02 A3005 RMK A01 T00400015  RH  084%=      5-min Rain = 0
KME1 140309Z 19003KT 04/02 A3005 RMK A01 T00400015  RH  084%=      5-min Rain = 0
KME1 140310Z 19002KT 04/01 A3005 RMK A01 T00400014  RH  083%=      5-min Rain = 0
KME1 140311Z 20002KT 04/01 A3005 RMK A01 T00390014  RH  084%=      5-min Rain = 0
KME1 140312Z 20002KT 04/01 A3005 RMK A01 T00390014  RH  084%=      5-min Rain = 0
KME1 140313Z 19003KT 04/01 A3005 RMK A01 T00380014  RH  084%=      5-min Rain = 0
KME1 140314Z 19002KT 04/01 A3005 RMK A01 T00380014  RH  084%=      5-min Rain = 0
KME1 140315Z 19003KT 04/01 A3005 RMK A01 T00380014  RH  084%=      5-min Rain = 0
KME1 140316Z 19002KT 04/01 A3005 RMK A01 T00380014  RH  084%=      5-min Rain = 0
KME1 140317Z 19003KT 04/01 A3005 RMK A01 T00380013  RH  084%=      5-min Rain = 0
KME1 140318Z 19003KT 04/01 A3005 RMK A01 T00380013  RH  084%=      5-min Rain = 0
KME1 140319Z 19003KT 04/01 A3005 RMK A01 T00390013  RH  084%=      5-min Rain = 0
KME1 140320Z 20004KT 04/01 A3005 RMK A01 T00380013  RH  084%=      5-min Rain = 0
KME1 140321Z 19004KT 04/01 A3005 RMK A01 T00380013  RH  084%=      5-min Rain = 0
KME1 140322Z 20004KT 04/01 A3005 RMK A01 T00370013  RH  084%=      5-min Rain = 0
KME1 140323Z 20004KT 04/01 A3005 RMK A01 T00370013  RH  084%=      5-min Rain = 0
KME1 140324Z 20004KT 04/01 A3005 RMK A01 T00360013  RH  085%=      5-min Rain = 0
KME1 140325Z 19003KT 04/01 A3005 RMK A01 T00360013  RH  085%=      5-min Rain = 0
KME1 140326Z 19003KT 04/01 A3005 RMK A01 T00360013  RH  085%=      5-min Rain = 0
KME1 140327Z 18003KT 04/01 A3005 RMK A01 T00360013  RH  085%=      5-min Rain = 0
KME1 140328Z 18003KT 04/01 A3005 RMK A01 T00360013  RH  085%=      5-min Rain = 0
KME1 140329Z 18002KT 04/01 A3005 RMK A01 T00360012  RH  085%=      5-min Rain = 0
KME1 140330Z 18002KT 04/01 A3005 RMK A01 T00350012  RH  085%=      5-min Rain = 0
KME1 140331Z 19002KT 04/01 A3005 RMK A01 T00350012  RH  085%=      5-min Rain = 0
KME1 140332Z 19003KT 04/01 A3005 RMK A01 T00360013  RH  085%=      5-min Rain = 0
KME1 140333Z 19004KT 04/01 A3005 RMK A01 T00360012  RH  085%=      5-min Rain = 0
KME1 140334Z 20004KT 04/01 A3005 RMK A01 T00360012  RH  084%=      5-min Rain = 0
KME1 140335Z 20005KT 04/01 A3005 RMK A01 T00350012  RH  085%=      5-min Rain = 0
KME1 140336Z 19005KT 04/01 A3005 RMK A01 T00360012  RH  085%=      5-min Rain = 0
KME1 140337Z 19005KT 04/01 A3005 RMK A01 T00360013  RH  085%=      5-min Rain = 0
KME1 140338Z 19004KT 04/01 A3005 RMK A01 T00370013  RH  084%=      5-min Rain = 0
KME1 140339Z 19004KT 04/01 A3005 RMK A01 T00370013  RH  084%=      5-min Rain = 0
KME1 140340Z 19003KT 04/01 A3005 RMK A01 T00370012  RH  084%=      5-min Rain = 0
KME1 140341Z 20004KT 04/01 A3005 RMK A01 T00370012  RH  084%=      5-min Rain = 0
KME1 140342Z 19003KT 04/01 A3005 RMK A01 T00380012  RH  084%=      5-min Rain = 0
KME1 140343Z 20004KT 04/01 A3005 RMK A01 T00380012  RH  083%=      5-min Rain = 0
KME1 140344Z 20004KT 04/01 A3005 RMK A01 T00380012  RH  083%=      5-min Rain = 0
KME1 140345Z 21004KT 04/01 A3005 RMK A01 T00380012  RH  083%=      5-min Rain = 0
KME1 140346Z 20005KT 04/01 A3005 RMK A01 T00380012  RH  083%=      5-min Rain = 0
KME1 140347Z 20005KT 04/01 A3005 RMK A01 T00390012  RH  083%=      5-min Rain = 0
KME1 140348Z 20005KT 04/01 A3005 RMK A01 T00390012  RH  083%=      5-min Rain = 0
KME1 140349Z 19005KT 04/01 A3005 RMK A01 T00390012  RH  083%=      5-min Rain = 0
KME1 140350Z 19005KT 04/01 A3005 RMK A01 T00390012  RH  083%=      5-min Rain = 0
KME1 140351Z 19005KT 04/01 A3005 RMK A01 T00390012  RH  083%=      5-min Rain = 0
KME1 140352Z 20004KT 04/01 A3005 RMK A01 T00390012  RH  082%=      5-min Rain = 0
KME1 140353Z 19004KT 04/01 A3005 RMK A01 T00390012  RH  082%=      5-min Rain = 0
KME1 140354Z 20004KT 04/01 A3005 RMK A01 T00390011  RH  082%=      5-min Rain = 0
KME1 140355Z 20004KT 04/01 A3005 RMK A01 T00400012  RH  082%=      5-min Rain = 0
KME1 140356Z 20004KT 04/01 A3005 RMK A01 T00400012  RH  082%=      5-min Rain = 0
KME1 140357Z 20004KT 04/01 A3005 RMK A01 T00390011  RH  082%=      5-min Rain = 0
KME1 140358Z 20005KT 04/01 A3005 RMK A01 T00390011  RH  082%=      5-min Rain = 0
KME1 140359Z 20005KT 04/01 A3005 RMK A01 T00390012  RH  083%=      5-min Rain = 0
KME1 140400Z 20004KT 04/01 A3005 RMK A01 T00390012  RH  083%=      5-min Rain = 0
KME1 140401Z 19005KT 04/01 A3005 RMK A01 T00390011  RH  082%=      5-min Rain = 0
KME1 140402Z 19004KT 04/01 A3005 RMK A01 T00390011  RH  082%=      5-min Rain = 0
KME1 140403Z 19005KT 04/01 A3005 RMK A01 T00390011  RH  082%=      5-min Rain = 0
KME1 140404Z 19005KT 04/01 A3005 RMK A01 T00380011  RH  082%=      5-min Rain = 0
KME1 140405Z 19005KT 04/01 A3005 RMK A01 T00380011  RH  082%=      5-min Rain = 0
KME1 140406Z 20004KT 04/01 A3005 RMK A01 T00380011  RH  082%=      5-min Rain = 0
KME1 140407Z 19004KT 04/01 A3005 RMK A01 T00380011  RH  083%=      5-min Rain = 0
KME1 140408Z 20005KT 04/01 A3005 RMK A01 T00380011  RH  082%=      5-min Rain = 0
KME1 140409Z 20004KT 04/01 A3006 RMK A01 T00380011  RH  083%=      5-min Rain = 0
KME1 140410Z 21003KT 04/01 A3006 RMK A01 T00380011  RH  082%=      5-min Rain = 0
KME1 140411Z 21003KT 04/01 A3006 RMK A01 T00380011  RH  082%=      5-min Rain = 0
KME1 140412Z 22004KT 04/01 A3006 RMK A01 T00380011  RH  083%=      5-min Rain = 0
KME1 140413Z 22004KT 04/01 A3006 RMK A01 T00380011  RH  083%=      5-min Rain = 0
KME1 140414Z 22003KT 04/01 A3006 RMK A01 T00370011  RH  083%=      5-min Rain = 0
KME1 140415Z 21004KT 04/01 A3006 RMK A01 T00370011  RH  083%=      5-min Rain = 0
KME1 140416Z 21004KT 04/01 A3006 RMK A01 T00370011  RH  083%=      5-min Rain = 0
KME1 140417Z 20003KT 04/01 A3006 RMK A01 T00370011  RH  083%=      5-min Rain = 0
KME1 140418Z 20003KT 04/01 A3006 RMK A01 T00360010  RH  083%=      5-min Rain = 0
KME1 140419Z 20003KT 04/01 A3006 RMK A01 T00360011  RH  084%=      5-min Rain = 0
KME1 140420Z 21002KT 04/01 A3006 RMK A01 T00350011  RH  084%=      5-min Rain = 0
KME1 140421Z 22002KT 04/01 A3006 RMK A01 T00350011  RH  084%=      5-min Rain = 0
KME1 140422Z 21003KT 04/01 A3006 RMK A01 T00350011  RH  084%=      5-min Rain = 0
KME1 140423Z 22004KT 04/01 A3006 RMK A01 T00350011  RH  084%=      5-min Rain = 0
KME1 140424Z 21005KT 04/01 A3006 RMK A01 T00360011  RH  084%=      5-min Rain = 0
KME1 140425Z 21005KT 04/01 A3006 RMK A01 T00360011  RH  084%=      5-min Rain = 0
KME1 140426Z 22005KT 04/01 A3006 RMK A01 T00360011  RH  084%=      5-min Rain = 0
KME1 140427Z 21004KT 04/01 A3006 RMK A01 T00360012  RH  084%=      5-min Rain = 0
KME1 140428Z 21004KT 04/01 A3006 RMK A01 T00370012  RH  084%=      5-min Rain = 0
KME1 140429Z 22003KT 04/01 A3006 RMK A01 T00370012  RH  084%=      5-min Rain = 0
KME1 140430Z 22003KT 04/01 A3006 RMK A01 T00370012  RH  084%=      5-min Rain = 0
KME1 140431Z 21003KT 04/01 A3006 RMK A01 T00360011  RH  084%=      5-min Rain = 0
KME1 140432Z 20003KT 04/01 A3006 RMK A01 T00360011  RH  084%=      5-min Rain = 0
KME1 140433Z 20003KT 04/01 A3006 RMK A01 T00350010  RH  084%=      5-min Rain = 0
KME1 140434Z 19003KT 04/01 A3006 RMK A01 T00350010  RH  084%=      5-min Rain = 0
KME1 140435Z 20004KT 03/01 A3006 RMK A01 T00340009  RH  084%=      5-min Rain = 0
KME1 140436Z 20004KT 03/01 A3006 RMK A01 T00330010  RH  085%=      5-min Rain = 0
KME1 140437Z 20005KT 03/01 A3006 RMK A01 T00330010  RH  085%=      5-min Rain = 0
KME1 140438Z 20005KT 03/01 A3006 RMK A01 T00330011  RH  085%=      5-min Rain = 0
KME1 140439Z 19005KT 03/01 A3006 RMK A01 T00320011  RH  086%=      5-min Rain = 0
KME1 140440Z 20005KT 03/01 A3006 RMK A01 T00320012  RH  086%=      5-min Rain = 0
KME1 140441Z 19005KT 03/01 A3006 RMK A01 T00320011  RH  087%=      5-min Rain = 0
KME1 140442Z 19006KT 03/01 A3006 RMK A01 T00310012  RH  087%=      5-min Rain = 0
KME1 140443Z 19006KT 03/01 A3006 RMK A01 T00320012  RH  087%=      5-min Rain = 0
KME1 140444Z 19006KT 03/01 A3006 RMK A01 T00320013  RH  087%=      5-min Rain = 0
KME1 140445Z 19005KT 03/01 A3006 RMK A01 T00320013  RH  087%=      5-min Rain = 0
KME1 140446Z 19004KT 03/01 A3006 RMK A01 T00340014  RH  087%=      5-min Rain = 0
KME1 140447Z 20004KT 03/01 A3006 RMK A01 T00340013  RH  086%=      5-min Rain = 0
KME1 140448Z 19005KT 03/01 A3006 RMK A01 T00340013  RH  086%=      5-min Rain = 0
KME1 140449Z 19005KT 03/01 A3006 RMK A01 T00340013  RH  086%=      5-min Rain = 0
KME1 140450Z 19005KT 03/01 A3006 RMK A01 T00340013  RH  086%=      5-min Rain = 0
KME1 140451Z 19005KT 03/01 A3006 RMK A01 T00340013  RH  086%=      5-min Rain = 0
KME1 140452Z 19004KT 03/01 A3006 RMK A01 T00340013  RH  086%=      5-min Rain = 0
KME1 140453Z 19005KT 03/01 A3006 RMK A01 T00340012  RH  086%=      5-min Rain = 0
KME1 140454Z 20005KT 03/01 A3006 RMK A01 T00340013  RH  086%=      5-min Rain = 0
KME1 140455Z 18006KT 03/01 A3006 RMK A01 T00340013  RH  086%=      5-min Rain = 0
KME1 140456Z 19006KT 03/01 A3006 RMK A01 T00340013  RH  086%=      5-min Rain = 0
KME1 140457Z 20007KT 03/01 A3006 RMK A01 T00340013  RH  086%=      5-min Rain = 0
KME1 140458Z 19006KT 04/01 A3006 RMK A01 T00350013  RH  086%=      5-min Rain = 0
KME1 140459Z 20006KT 04/01 A3006 RMK A01 T00350013  RH  086%=      5-min Rain = 0
KME1 140500Z 20006KT 04/01 A3006 RMK A01 T00350013  RH  085%=      5-min Rain = 0
KME1 140501Z 19006KT 04/01 A3006 RMK A01 T00350013  RH  085%=      5-min Rain = 0
KME1 140502Z 19004KT 04/01 A3006 RMK A01 T00350012  RH  085%=      5-min Rain = 0
KME1 140503Z 19007KT 04/01 A3006 RMK A01 T00350012  RH  085%=      5-min Rain = 0
KME1 140504Z 20005KT 04/01 A3006 RMK A01 T00350012  RH  085%=      5-min Rain = 0
KME1 140505Z 20006KT 04/01 A3006 RMK A01 T00360012  RH  085%=      5-min Rain = 0
KME1 140506Z 20005KT 04/01 A3006 RMK A01 T00350012  RH  085%=      5-min Rain = 0
KME1 140507Z 20005KT 04/01 A3006 RMK A01 T00350012  RH  085%=      5-min Rain = 0
KME1 140508Z 20006KT 04/01 A3006 RMK A01 T00350012  RH  085%=      5-min Rain = 0
KME1 140509Z 20007KT 04/01 A3006 RMK A01 T00350012  RH  085%=      5-min Rain = 0
KME1 140510Z 21006KT 04/01 A3006 RMK A01 T00350012  RH  085%=      5-min Rain = 0
KME1 140511Z 20005KT 04/01 A3006 RMK A01 T00350012  RH  085%=      5-min Rain = 0
KME1 140512Z 20006KT 04/01 A3006 RMK A01 T00350012  RH  085%=      5-min Rain = 0
KME1 140513Z 19007KT 04/01 A3006 RMK A01 T00350012  RH  085%=      5-min Rain = 0
KME1 140514Z 20007KT 04/01 A3006 RMK A01 T00350012  RH  085%=      5-min Rain = 0
KME1 140515Z 20008KT 04/01 A3006 RMK A01 T00360012  RH  084%=      5-min Rain = 0
KME1 140516Z 19008KT 04/01 A3006 RMK A01 T00360012  RH  084%=      5-min Rain = 0
KME1 140517Z 19007KT 04/01 A3006 RMK A01 T00360011  RH  084%=      5-min Rain = 0
KME1 140518Z 20007KT 04/01 A3006 RMK A01 T00360012  RH  084%=      5-min Rain = 0
KME1 140519Z 19008KT 04/01 A3006 RMK A01 T00360011  RH  084%=      5-min Rain = 0
KME1 140520Z 19006KT 04/01 A3007 RMK A01 T00360011  RH  084%=      5-min Rain = 0
KME1 140521Z 19005KT 04/01 A3007 RMK A01 T00360011  RH  084%=      5-min Rain = 0
KME1 140522Z 19008KT 04/01 A3007 RMK A01 T00360011  RH  084%=      5-min Rain = 0
KME1 140523Z 19007KT 04/01 A3007 RMK A01 T00360011  RH  084%=      5-min Rain = 0
KME1 140524Z 19008KT 04/01 A3007 RMK A01 T00360011  RH  084%=      5-min Rain = 0
KME1 140525Z 19010G16KT 04/01 A3007 RMK A01 T00350011  RH  084%=      5-min Rain = 0
KME1 140526Z 19010KT 04/01 A3007 RMK A01 T00360011  RH  084%=      5-min Rain = 0
KME1 140527Z 18011KT 04/01 A3007 RMK A01 T00360011  RH  084%=      5-min Rain = 0
KME1 140528Z 19010KT 04/01 A3007 RMK A01 T00360011  RH  084%=      5-min Rain = 0
KME1 140529Z 20008KT 04/01 A3007 RMK A01 T00360011  RH  084%=      5-min Rain = 0
KME1 140530Z 18009KT 04/01 A3007 RMK A01 T00360011  RH  084%=      5-min Rain = 0
KME1 140531Z 18010KT 04/01 A3006 RMK A01 T00360011  RH  084%=      5-min Rain = 0
KME1 140532Z 18010G15KT 04/01 A3006 RMK A01 T00350011  RH  084%=      5-min Rain = 0
KME1 140533Z 18010KT 04/01 A3006 RMK A01 T00360011  RH  084%=      5-min Rain = 0
KME1 140534Z 18008KT 04/01 A3006 RMK A01 T00350011  RH  084%=      5-min Rain = 0
KME1 140535Z 18010KT 04/01 A3006 RMK A01 T00360011  RH  084%=      5-min Rain = 0
KME1 140536Z 18011KT 04/01 A3006 RMK A01 T00360011  RH  084%=      5-min Rain = 0
KME1 140537Z 17011KT 04/01 A3006 RMK A01 T00350011  RH  084%=      5-min Rain = 0
KME1 140538Z 18012KT 04/01 A3006 RMK A01 T00350011  RH  084%=      5-min Rain = 0
KME1 140539Z 18007KT 04/01 A3006 RMK A01 T00350011  RH  084%=      5-min Rain = 0
KME1 140540Z 19008KT 04/01 A3006 RMK A01 T00350011  RH  084%=      5-min Rain = 0
KME1 140541Z 19007KT 04/01 A3006 RMK A01 T00350011  RH  084%=      5-min Rain = 0
KME1 140542Z 19008KT 04/01 A3006 RMK A01 T00350011  RH  084%=      5-min Rain = 0
KME1 140543Z 18009KT 04/01 A3006 RMK A01 T00350010  RH  084%=      5-min Rain = 0
KME1 140544Z 19009KT 04/01 A3006 RMK A01 T00350011  RH  084%=      5-min Rain = 0
KME1 140545Z 18008KT 04/01 A3006 RMK A01 T00350011  RH  084%=      5-min Rain = 0
KME1 140546Z 19007KT 04/01 A3006 RMK A01 T00350011  RH  084%=      5-min Rain = 0
KME1 140547Z 19005KT 04/01 A3006 RMK A01 T00350010  RH  084%=      5-min Rain = 0
KME1 140548Z 20006KT 04/01 A3006 RMK A01 T00350010  RH  084%=      5-min Rain = 0
KME1 140549Z 20003KT 04/01 A3006 RMK A01 T00350010  RH  084%=      5-min Rain = 0
KME1 140550Z 20002KT 04/01 A3007 RMK A01 T00350011  RH  084%=      5-min Rain = 0
KME1 140551Z 22003KT 03/01 A3007 RMK A01 T00340010  RH  084%=      5-min Rain = 0
KME1 140552Z 20002KT 03/01 A3007 RMK A01 T00340011  RH  085%=      5-min Rain = 0
KME1 140553Z 22002KT 03/01 A3007 RMK A01 T00340010  RH  084%=      5-min Rain = 0
KME1 140554Z 25003KT 03/01 A3007 RMK A01 T00340010  RH  084%=      5-min Rain = 0
KME1 140555Z 23004KT 03/01 A3007 RMK A01 T00340010  RH  085%=      5-min Rain = 0
KME1 140556Z 24003KT 03/01 A3007 RMK A01 T00340010  RH  085%=      5-min Rain = 0
KME1 140557Z 23003KT 03/01 A3007 RMK A01 T00340011  RH  085%=      5-min Rain = 0
KME1 140558Z 22003KT 03/01 A3007 RMK A01 T00340011  RH  085%=      5-min Rain = 0
KME1 140559Z 22005KT 03/01 A3007 RMK A01 T00340010  RH  085%=      5-min Rain = 0

Page generated in 0.1246 seconds.